Aviation Digital Data Service (ADDS)

Output produced by METARs form (1711 UTC 29 May 2017)
found at http://www.aviationweather.gov/adds/metars/
 
TAF CYXX 291138Z 2912/3012 22007KT P6SM SKC 
     FM300800 20005KT P6SM BKN100 RMK NXT FCST BY 291800Z
       
TAF CYLT 291315Z 2913/3001 33018G28KT 2SM -SN BLSN OVC007 
     TEMPO 2913/2923 6SM -SN OVC010 
     BECMG 2921/2923 33012G22KT 
     FM292300 33012G22KT P6SM -SN OVC015 
     TEMPO 2923/3001 3SM -SN OVC008 RMK NXT FCST BY 291800Z
       
TAF CYAH 291038Z 2911/2921 09008KT P6SM SKC 
     BECMG 2911/2913 16012G22KT RMK FCST BASED ON AUTO OBS. NXT FCST BY 291800Z
       
TAF CYAM 291338Z 2914/3002 18005KT 6SM BR SCT006 OVC010 
     TEMPO 2914/2916 4SM -DZ BR OVC006 
     FM291600 20008KT 5SM -DZ BR OVC015 
     TEMPO 2916/2917 P6SM NSW BKN025 
     FM291700 21010KT P6SM SCT040 
     TEMPO 2917/3002 4SM -SHRA BR BKN040 
     PROB30 2919/3002 VRB15G25KT 2SM +TSRA BR BKN010 OVC030CB RMK NXT FCST BY 292000Z
       
TAF CYAS 291339Z 2914/2921 15005KT P6SM FEW080 SCT220 
     BECMG 2916/2918 10007KT RMK NXT FCST WILL BE ISSUED AT 301345Z
       
TAF CYAT 291438Z 2915/2919 09008KT P6SM SCT012 OVC110 
     TEMPO 2915/2919 4SM -SHRA BR BKN012 BKN130 
     PROB30 2917/2919 VRB20G30KT 2SM TSRA BR BKN012 OVC050CB RMK FCST BASED ON AUTO OBS. NXT FCST WILL BE ISSUED AT 300845Z
       
TAF CYAW 291105Z 2912/2924 VRB03KT P6SM FEW020 SCT250 
     TEMPO 2912/2915 BKN020 
     BECMG 2913/2915 14008KT RMK NXT FCST BY 291800Z
       
TAF AMD CYAY 291408Z 2914/3002 03006KT P6SM SCT009 
     TEMPO 2914/2916 BKN009 
     FM291600 04008KT P6SM SCT015 
     TEMPO 2916/2918 BKN015 
     FM300000 13006KT P6SM FEW030 RMK FCST BASED ON AUTO OBS. NXT FCST BY 292000Z
       
TAF CYAZ 291439Z 2915/3001 VRB03KT 2SM -DZ BR SCT004 OVC006 
     TEMPO 2915/2918 5SM BR SCT006 OVC010 
     FM291800 23008KT 3SM -DZ BR OVC006 
     TEMPO 2918/2921 P6SM NSW OVC010 
     FM292100 28012KT P6SM SCT015 BKN025 
     TEMPO 2921/3001 5SM -DZ BR BKN015 RMK NXT FCST BY 291800Z
       
TAF CYBB 291339Z 2914/2923 25007KT P6SM OVC030 
     FM291900 24007KT P6SM OVC030 
     TEMPO 2919/2923 5SM -RA BR OVC015 RMK NXT FCST BY 291900Z
       
TAF CYBC 291339Z 2914/3002 08015KT P6SM BKN040 
     BECMG 2914/2916 09015G25KT 
     BECMG 2922/2924 08012KT RMK FCST BASED ON AUTO OBS. NXT FCST BY 292000Z
       
TAF CYBG 291430Z 2915/3012 10020G30KT P6SM FEW030 BKN110 BKN240 
     FM292000 10020G30KT P6SM SCT030 BKN200 
     BECMG 3000/3002 10012KT 
     FM300600 10012KT P6SM OVC030 
     TEMPO 3006/3012 P6SM -SHRA RMK NXT FCST BY 291800Z
       
TAF CYBK 291138Z 2912/2924 34007KT P6SM -RA SCT015 OVC040 
     TEMPO 2912/2915 5SM -RA BR OVC015 
     BECMG 2913/2915 VRB03KT 
     FM291500 VRB03KT P6SM -RA SCT008 OVC025 
     TEMPO 2915/2921 2SM -RA BR OVC008 
     PROB30 2915/2921 1SM BR VV005 
     FM292100 VRB03KT P6SM -RA OVC030 
     TEMPO 2921/2924 OVC020 RMK NXT FCST BY 291800Z
       
TAF CYBL 291439Z 2915/3003 32005KT P6SM SCT260 
     BECMG 2918/2920 07005KT RMK NXT FCST BY 291900Z
       
TAF AMD CYBN 291418Z 2914/2924 26010G20KT P6SM SCT015 BKN030 
     TEMPO 2914/2916 P6SM -SHRA BKN015 OVC030 
     FM291600 25012G22KT P6SM FEW020 SCT030 BKN100 
     TEMPO 2916/2924 5SM -SHRA BR BKN020 OVC030 
     PROB30 2916/2920 VRB15G25KT 3SM TSRA BR OVC020CB RMK FCST BASED ON AUTO OBS. NXT FCST BY 291800Z
       
TAF AMD CYBR 291337Z 2913/2924 32012KT P6SM SCT020 BKN050 
     BECMG 2913/2915 32015G25KT BKN020 
     FM291500 34018G28KT P6SM BKN030 
     TEMPO 2915/2924 P6SM -SHRA BKN020 RMK NXT FCST BY 291800Z
       
TAF CYBW 291138Z 2912/2924 13005KT P6SM SKC 
     FM291800 13010KT P6SM FEW100 
     BECMG 2922/2924 BKN100 RMK FCST BASED ON AUTO OBS. NXT FCST BY 291800Z
       
TAF CYBX 291339Z 2914/3002 20005KT P6SM FEW015 
     TEMPO 2914/2915 BKN015 
     BECMG 2917/2919 25006KT 
     FM300000 VRB03KT P6SM SKC RMK NXT FCST BY 292000Z
       
TAF AMD CYCB 291508Z 2915/3001 03010KT P6SM SCT006 OVC012 
     TEMPO 2915/2921 2SM -DZ BR OVC006 
     FM292100 35005KT P6SM SCT008 OVC020 RMK NXT FCST BY 291900Z
       
TAF CYCD 291439Z 2915/3003 VRB03KT P6SM SKC 
     FM291800 23006KT P6SM SCT240 
     BECMG 2920/2922 10006KT RMK NXT FCST BY 291800Z
       
TAF CYCG 291439Z 2915/3003 VRB03KT P6SM FEW230 
     FM291800 35008KT P6SM SCT090 
     FM292000 35008KT P6SM VCSH BKN080 RMK NXT FCST BY 291900Z
       
TAF CYCO 291238Z 2913/3001 VRB03KT P6SM SCT010 
     PROB30 2913/2916 2SM BR BKN010 
     FM291600 VRB03KT P6SM SCT010 
     BECMG 2919/2921 06008KT RMK NXT FCST BY 291900Z
       
TAF CYCX 291134Z 2912/2924 06005KT P6SM OVC009 
     TEMPO 2912/2915 OVC012 
     FM291500 06005KT P6SM OVC012 
     TEMPO 2915/2918 SCT012 BKN040 
     BECMG 2915/2917 06010KT 
     FM291800 06010KT P6SM BKN040 RMK NXT FCST BY 291800Z
       
TAF AMD CYCY 291322Z 2913/3001 32020KT P6SM SCT020 BKN050 
     TEMPO 2913/2919 3SM -SN BKN020 OVC050 
     FM291900 32015KT P6SM BKN050 RMK NXT FCST BY 291900Z
       
TAF CYDA 291538Z 2916/2923 VRB03KT P6SM SCT060 BKN140 
     FM292100 24006KT P6SM SCT070 
     TEMPO 2921/2923 BKN070 RMK NXT FCST BY 291800Z
       
TAF CYDB 291138Z 2912/2924 13012G22KT P6SM BKN200 
     FM291800 13020G30KT P6SM FEW200 RMK FCST BASED ON AUTO OBS. NXT FCST BY 291800Z
       
TAF AMD CYDF 291608Z 2916/3002 06005KT P6SM FEW015 BKN030 
     TEMPO 2916/2918 BKN015 
     FM291800 03008KT P6SM BKN025 
     FM300000 04006KT P6SM SCT030 RMK NXT FCST BY 292000Z
       
TAF CYDL 291538Z 2916/3002 08006KT P6SM FEW150 BKN220 
     FM291800 22006KT P6SM FEW080 BKN220 RMK FCST BASED ON AUTO OBS. NXT FCST BY 291800Z
       
TAF AMD CYDN 291441Z 2914/2924 33018G28KT P6SM SCT020 BKN040 
     TEMPO 2914/2924 5SM -SHRA BR BKN020 OVC040 RMK FCST BASED ON AUTO OBS. NXT FCST BY 291800Z
       
TAF CYDP 291339Z 2914/2923 VRB03KT P6SM SCT240 
     BECMG 2917/2919 04007KT 
     BECMG 2921/2923 08008KT RMK NXT FCST BY 292000Z
       
TAF CYDQ 291238Z 2913/3001 VRB03KT P6SM SKC 
     FM291900 12010G20KT P6SM FEW100 RMK FCST BASED ON AUTO OBS. NXT FCST BY 291900Z
       
TAF CYED 291215Z 2912/2924 VRB03KT P6SM SKC 
     BECMG 2917/2919 12008KT RMK FCST BASED ON AUTO OBS 291200-291400Z. NXT FCST BY 291800Z
       
TAF CYEG 291439Z 2915/3012 11006KT P6SM SCT250 
     BECMG 2915/2917 14010KT 
     FM292200 14012KT P6SM SKC RMK NXT FCST BY 291800Z
       
TAF CYEK 291138Z 2912/2924 02012G22KT P6SM SCT070 BKN120 
     TEMPO 2912/2914 BKN070 
     FM291400 02015G25KT P6SM BKN120 
     BECMG 2921/2923 02010KT RMK FCST BASED ON AUTO OBS. NXT FCST BY 291800Z
       
TAF CYEN 291138Z 2912/2924 31012KT P6SM SCT030 
     TEMPO 2912/2917 BKN030 
     BECMG 2913/2915 32015G25KT 
     FM291700 33020G30KT P6SM SCT050 RMK NXT FCST BY 291800Z
       
TAF AMD CYER 291705Z 2917/2919 05010KT P6SM OVC010 
     TEMPO 2917/2919 4SM -RA BR OVC006 RMK FCST BASED ON AUTO OBS. NXT FCST WILL BE ISSUED AT 300845Z
       
TAF CYEV 291238Z 2913/3001 08012KT P6SM SCT200 RMK NXT FCST BY 291900Z
       
TAF CYFB 291138Z 2912/3012 VRB03KT P6SM BKN060 OVC080 
     TEMPO 2912/2916 P6SM -SN OVC040 
     FM291600 VRB03KT P6SM BKN060 
     TEMPO 2916/2921 SCT080 
     FM292200 VRB03KT P6SM FEW060 RMK NXT FCST BY 291800Z
       
TAF AMD CYFC 291519Z 2915/2924 05010KT P6SM BKN012 OVC040 
     TEMPO 2915/2918 SCT012 BKN040 
     FM291800 07010KT P6SM BKN040 RMK FCST BASED ON AUTO OBS. NXT FCST BY 291800Z
       
TAF CYFS 291138Z 2912/2924 VRB03KT P6SM SCT200 
     BECMG 2917/2919 13008KT 
     FM292100 13010KT P6SM BKN060 RMK NXT FCST BY 291800Z
       
TAF CYGH 291413Z 2914/2923 08010KT P6SM FEW090 RMK NXT FCST BY 291800Z
       
TAF CYGK 291339Z 2914/3002 15012G22KT P6SM -RA FEW005 OVC020 
     TEMPO 2914/2917 4SM -SHRA BR BKN008 OVC012 
     FM291700 20012KT 2SM BR BKN004 OVC025 
     TEMPO 2917/2919 P6SM NSW SCT004 BKN025 
     FM291900 18010KT P6SM BKN060 
     FM300000 20010KT P6SM FEW060 RMK NXT FCST BY 292000Z
       
TAF CYGL 291142Z 2912/3012 09013KT P6SM FEW080 
     BECMG 2912/2914 BKN060 
     FM291500 13015G25KT P6SM BKN040 
     TEMPO 2915/2924 P6SM -SHRA 
     PROB30 2917/2920 VRB20G30KT 2SM +TSRA BR BKN040CB 
     FM300000 14012G22KT P6SM -SHRA OVC050 
     FM300600 13012G22KT P6SM -RA OVC020 
     FM300900 14012G22KT P6SM BKN020 RMK NXT FCST BY 291800Z
       
TAF CYGP 291339Z 2914/3002 09008KT P6SM SKC 
     BECMG 2923/3001 VRB03KT RMK NXT FCST BY 292000Z
       
TAF CYGQ 291339Z 2914/3002 18007KT P6SM SCT005 OVC080 
     TEMPO 2914/2916 4SM -SHRA BR BKN005 OVC080 
     FM291600 16008KT P6SM -SHRA BKN060 
     TEMPO 2916/3002 4SM -SHRA BR 
     PROB30 2918/3001 2SM TSRA BR BKN015 OVC030CB RMK NXT FCST BY 292000Z
       
TAF CYGR 291339Z 2914/3002 03012KT P6SM SCT008 
     TEMPO 2914/2917 BKN008 
     FM291800 03012KT P6SM SKC RMK NXT FCST BY 292000Z
       
TAF CYGT 291138Z 2912/2922 36007KT P6SM OVC006 
     TEMPO 2912/2916 1SM -SN BR OVC003 
     FM291600 33010KT P6SM SCT006 
     TEMPO 2916/2919 BKN006 RMK NXT FCST BY 291900Z
       
TAF CYGV 291339Z 2914/3002 VRB03KT P6SM SKC 
     BECMG 2916/2918 24008KT 
     BECMG 2922/2924 VRB03KT RMK FCST BASED ON AUTO OBS. NXT FCST BY 292000Z
       
TAF CYGW 291142Z 2912/2924 11015G25KT P6SM SKC 
     FM291800 12015G25KT P6SM SCT050 
     BECMG 2922/2924 11010KT RMK FCST BASED ON AUTO OBS. NXT FCST BY 291800Z
       
TAF AMD CYGX 291504Z 2915/3001 36012KT 3SM -RA -DZ BR OVC006 
     TEMPO 2915/2919 P6SM NSW OVC010 
     FM291900 35012G22KT P6SM OVC015 
     TEMPO 2919/3001 5SM -RA BR RMK NXT FCST BY 291900Z
       
TAF CYHD 291339Z 2914/3002 31006KT 5SM -SHRA BR BKN005 OVC015 
     TEMPO 2914/2916 P6SM NSW SCT005 OVC015 
     FM291600 32012KT 5SM -SHRA BR OVC015 
     TEMPO 2916/3002 P6SM NSW OVC030 RMK FCST BASED ON AUTO OBS. NXT FCST BY 292000Z
       
TAF AMD CYHI 291622Z 2916/2924 25006KT 1SM BR OVC005 
     TEMPO 2916/2919 3SM BR BKN010 
     BECMG 2917/2919 30005KT 
     FM291900 30005KT P6SM SCT008 
     TEMPO 2919/2924 21/2SM BR BKN008 RMK NXT FCST BY 291900Z
       
TAF AMD CYHK 291504Z 2915/2924 VRB03KT P6SM OVC025 
     TEMPO 2915/2924 P6SM -RA OVC015 
     BECMG 2916/2918 01007KT RMK NXT FCST BY 291800Z
       
TAF CYHM 291139Z 2912/3012 24010KT 5SM BR BKN006 
     TEMPO 2912/2914 P6SM NSW BKN010 
     FM291400 24012G22KT P6SM SCT015 
     TEMPO 2914/2916 BKN015 
     FM291800 24015G25KT P6SM BKN050 
     TEMPO 2921/3002 P6SM -SHRA OVC050 
     PROB30 2921/3001 21/2SM +TSRA BR BKN025CB 
     FM300200 22010G20KT 6SM BR FEW008 BKN030 
     FM300400 21010KT 2SM -SHRA BR BKN008 OVC030 RMK NXT FCST BY 291800Z
       
TAF CYHU 291142Z 2912/3012 05007KT P6SM BKN120 
     BECMG 2912/2914 17015G25KT 
     FM291600 17018G28KT P6SM BKN060 OVC120 
     TEMPO 2916/2919 P6SM -SHRA BKN030 OVC060 
     FM291900 17015G25KT P6SM -RA BKN030 OVC060 
     FM292100 16015KT 6SM -RA BR BKN020 OVC040 
     FM300500 15012KT P6SM BKN040 OVC100 
     FM301000 16012KT 6SM BR BKN020 OVC040 RMK FCST BASED ON AUTO OBS. NXT FCST BY 291800Z
       
TAF CYHY 291138Z 2912/2924 17008KT P6SM SCT200 RMK NXT FCST BY 291800Z
       
TAF CYHZ 291438Z 2915/3012 09005KT P6SM SCT020 
     TEMPO 2915/2916 BKN020 
     FM291800 15011KT P6SM SCT040 
     PROB30 3003/3006 3/4SM BR 
     FM300600 09005KT P6SM FEW025 
     PROB30 3006/3011 3/4SM BR RMK NXT FCST BY 291800Z
       
TAF CYIO 291238Z 2913/3001 22007KT P6SM OVC015 
     FM291900 22005KT P6SM OVC015 
     TEMPO 2919/3001 SCT015 OVC030 RMK FCST BASED ON AUTO OBS. NXT FCST BY 291900Z
       
TAF AMD CYIV 291414Z 2914/3001 35008KT P6SM OVC008 
     TEMPO 2914/2918 5SM BR OVC002 
     FM291800 32010KT P6SM -RA OVC008 
     TEMPO 2918/3001 P6SM NSW OVC012 RMK NXT FCST BY 291900Z
       
TAF CYJT 291142Z 2912/3012 30007KT P6SM FEW005 SCT020 BKN080 
     TEMPO 2912/2914 BKN020 
     FM291400 32010KT P6SM SCT025 
     TEMPO 2914/2916 BKN025 
     BECMG 2921/2923 03007KT 
     FM300100 06005KT P6SM SKC RMK NXT FCST BY 291800Z
       
TAF CYKA 291238Z 2913/3001 VRB03KT P6SM SKC 
     FM291800 11006KT P6SM FEW080 RMK NXT FCST BY 291900Z
       
TAF CYKF 291339Z 2914/3002 25012KT P6SM SCT012 
     TEMPO 2914/2915 BKN012 
     FM291500 26015G25KT P6SM SCT040 
     BECMG 2917/2919 26012G22KT 
     FM292100 22012G22KT P6SM BKN060 
     TEMPO 2921/3002 P6SM -SHRA 
     PROB40 2921/3001 VRB15G30KT 2SM TSRA BR BKN040 OVC060CB RMK FCST BASED ON AUTO OBS. NXT FCST BY 292000Z
       
TAF CYKG 291339Z 2914/2921 VRB03KT P6SM FEW080 SCT200 
     BECMG 2915/2917 22007KT RMK NXT FCST WILL BE ISSUED AT 301345Z
       
TAF CYKJ 291238Z 2913/2924 34006KT P6SM BKN030 
     FM291500 36012KT P6SM SKC RMK FCST BASED ON AUTO OBS. NXT FCST BY 291900Z
       
TAF CYKL 291339Z 2914/3002 24008KT P6SM SKC 
     BECMG 2915/2917 15007KT RMK FCST BASED ON AUTO OBS. NXT FCST BY 292000Z
       
TAF CYKZ 291139Z 2912/2924 21007KT P6SM SCT008 BKN025 
     TEMPO 2912/2914 5SM -SHRA BR BKN008 OVC020 
     FM291400 26010KT P6SM SCT020 BKN050 
     TEMPO 2914/2915 BKN020 BKN050 
     FM291700 26012G22KT P6SM FEW050 
     FM292300 26010KT P6SM SCT050 BKN100 
     TEMPO 2923/2924 P6SM -SHRA BKN050 OVC100 
     PROB30 2923/2924 21/2SM TSRA BR BKN025 OVC050CB RMK NXT FCST BY 291800Z
       
TAF AMD CYLD 291651Z 2916/3001 19010KT P6SM SCT015 BKN090 
     TEMPO 2916/2918 4SM -SHRA BR BKN015 OVC090 
     FM291710 21008KT P6SM -SHRA OVC040 
     TEMPO 2917/2919 2SM +TSRA BR BKN010 OVC030CB 
     FM291830 21008KT P6SM SCT040 
     TEMPO 2918/3001 4SM -SHRA BR BKN040 
     PROB30 2918/3001 3SM TSRA BR OVC050CB RMK NXT FCST BY 292000Z
       
TAF CYLK 291538Z 2916/2924 VRB03KT P6SM BKN090 RMK NXT FCST BY 291900Z
       
TAF CYLL 291138Z 2912/2924 VRB03KT P6SM SKC 
     BECMG 2914/2916 36008KT RMK FCST BASED ON AUTO OBS. NXT FCST BY 291800Z
       
TAF CYLT 291315Z 2913/3001 33018G28KT 2SM -SN BLSN OVC007 
     TEMPO 2913/2923 6SM -SN OVC010 
     BECMG 2921/2923 33012G22KT 
     FM292300 33012G22KT P6SM -SN OVC015 
     TEMPO 2923/3001 3SM -SN OVC008 RMK NXT FCST BY 291800Z
       
TAF CYLW 291238Z 2913/3001 VRB03KT P6SM SKC 
     FM291800 20006KT P6SM SCT080 RMK FCST BASED ON AUTO OBS. NXT FCST BY 291900Z
       
TAF CYMA 291138Z 2912/2924 VRB03KT P6SM SCT050 BKN140 
     FM291800 15010G20KT P6SM FEW080 SCT200 RMK NXT FCST BY 291800Z
       
TAF CYMH 291339Z 2914/3002 08005KT P6SM FEW015 
     TEMPO 2914/2915 BKN015 
     FM291700 11007KT P6SM SCT020 
     TEMPO 2917/2924 BKN020 
     FM300000 VRB03KT P6SM FEW008 
     TEMPO 3000/3002 BKN008 
     PROB30 3000/3002 2SM BR BKN004 RMK FCST BASED ON AUTO OBS. NXT FCST BY 292000Z
       
TAF AMD CYMJ 291708Z 2917/2924 33015G25KT P6SM FEW040 RMK NXT FCST BY 291800Z
       
TAF CYMM 291238Z 2913/3001 VRB03KT P6SM SKC 
     BECMG 2919/2921 10008KT RMK FCST BASED ON AUTO OBS. NXT FCST BY 291900Z
       
TAF CYMO 291142Z 2912/2924 09005KT P6SM BKN160 
     TEMPO 2912/2922 4SM -SHRA BR BKN040 
     PROB30 2916/2922 2SM +TSRA BR BKN020CB 
     FM292200 14010KT P6SM -SHRA OVC025 
     PROB30 2922/2924 2SM +TSRA BR BKN004 OVC010CB RMK FCST BASED ON AUTO OBS. NXT FCST BY 291800Z
       
TAF CYMT 291139Z 2912/2924 12012G22KT P6SM FEW070 OVC100 
     TEMPO 2912/2920 OVC070 
     BECMG 2912/2914 12015G25KT 
     FM292000 12015G25KT P6SM -SHRA BKN050 RMK FCST BASED ON AUTO OBS. NXT FCST BY 291800Z
       
TAF CYMX 291142Z 2912/3012 05007KT P6SM SCT120 BKN220 
     FM291600 15010G20KT P6SM SCT050 BKN120 
     TEMPO 2916/2919 P6SM -SHRA BKN050 OVC120 
     FM291900 15010G20KT P6SM -RA BKN015 OVC030 
     FM292200 15010KT 3SM -SHRA BR BKN008 OVC015 
     FM300300 12005KT 6SM BR SCT015 BKN040 RMK NXT FCST BY 291800Z
       
TAF CYNA 291339Z 2914/3002 22005KT P6SM SKC 
     FM291700 24012KT P6SM FEW070 
     BECMG 2923/3001 VRB03KT RMK FCST BASED ON AUTO OBS. NXT FCST BY 292000Z
       
TAF AMD CYND 291703Z 2917/3001 16012G22KT 6SM -RA BR SCT015 OVC020 
     TEMPO 2917/2922 3SM -RA BR BKN007 OVC015 
     FM292200 18007KT P6SM SCT015 BKN050 RMK NXT FCST BY 291800Z
       
TAF CYNE 291238Z 2913/3001 35010KT P6SM -RA SCT007 OVC012 
     TEMPO 2913/2918 4SM -RA BR OVC007 
     FM291800 34012KT P6SM -RA OVC015 RMK FCST BASED ON AUTO OBS. NXT FCST BY 291900Z
       
TAF CYOA 291238Z 2913/2923 32005KT P6SM SCT020 
     FM291900 35010KT P6SM SCT015 
     TEMPO 2919/2923 BKN015 RMK NXT FCST BY 291900Z
       
TAF CYOC 291439Z 2915/3001 06008KT P6SM FEW050 BKN100 BKN220 
     BECMG 2918/2920 09010G20KT RMK NXT FCST BY 291800Z
       
TAF CYOD 291430Z 2915/3012 VRB03KT P6SM FEW250 
     BECMG 2916/2918 03008KT 
     FM300600 12005KT P6SM SCT250 RMK NXT FCST BY 291800Z
       
TAF CYOJ 291238Z 2913/3001 15008KT P6SM SCT100 
     TEMPO 2913/2918 BKN100 
     FM291800 15010KT P6SM FEW100 SCT220 RMK FCST BASED ON AUTO OBS. NXT FCST BY 291900Z
       
TAF CYOW 291438Z 2915/3012 14012G22KT 6SM -RA BR SCT015 OVC025 
     TEMPO 2915/2922 3SM -RA BR BKN006 OVC015 
     FM292200 18007KT P6SM BKN015 OVC050 
     TEMPO 2922/3002 SCT015 BKN050 
     FM300200 18012KT P6SM BKN060 
     FM300600 16012KT P6SM OVC040 
     TEMPO 3006/3009 P6SM -SHRA OVC020 
     FM300900 16012KT P6SM -SHRA OVC020 
     TEMPO 3009/3012 4SM -SHRA BR BKN008 OVC015 RMK NXT FCST BY 291800Z
       
TAF CYOY 291134Z 2912/2924 12005KT P6SM FEW030 BKN080 
     FM291400 09010G20KT P6SM FEW040 SCT080 
     FM292100 11010G20KT P6SM BKN040 BKN240 
     TEMPO 2922/2924 P6SM -SHRA RMK FCST BASED ON AUTO OBS 291200-291300Z. NXT FCST BY 291800Z
       
TAF CYPA 291238Z 2913/3001 31008KT P6SM FEW060 
     BECMG 2914/2916 35015G25KT RMK NXT FCST BY 291900Z
       
TAF CYPC 291439Z 2915/2923 VRB03KT 1/2SM FZFG BKN007 
     TEMPO 2915/2919 6SM BR SCT007 
     FM291900 15005KT P6SM FEW007 RMK NXT FCST BY 291900Z
       
TAF CYPE 291238Z 2913/3001 VRB03KT P6SM FEW250 
     BECMG 2914/2916 12010G20KT RMK NXT FCST BY 291900Z
       
TAF AMD CYPG 291437Z 2914/2924 33015G25KT P6SM SCT012 BKN030 
     TEMPO 2914/2918 3SM -SHRA BR SCT008 OVC012 
     PROB30 2914/2916 OVC008 
     FM291800 33018G28KT P6SM FEW015 BKN030 
     TEMPO 2918/2924 5SM -SHRA BR BKN015 OVC030 RMK NXT FCST BY 291800Z
       
TAF CYPH 291142Z 2912/2924 04007KT P6SM SKC 
     BECMG 2913/2915 11015G25KT RMK FCST BASED ON AUTO OBS. NXT FCST BY 291800Z
       
TAF CYPL 291238Z 2913/3001 VRB03KT P6SM SCT006 OVC050 
     TEMPO 2913/2915 4SM -SHRA BR BKN006 OVC012 
     PROB30 2913/2915 2SM TSRA BR OVC008CB 
     FM291500 VRB03KT 4SM -SHRA BR BKN006 OVC012 
     TEMPO 2915/2920 P6SM NSW SCT006 OVC012 
     PROB30 2915/2920 2SM TSRA BR OVC008CB 
     FM292000 32010KT P6SM BKN060 
     TEMPO 2920/2923 4SM -SHRA BR OVC006 
     FM292300 32010KT 4SM -SHRA BR OVC006 
     TEMPO 2923/3001 P6SM NSW OVC010 RMK NXT FCST BY 292000Z
       
TAF AMD CYPQ 291606Z 2916/3002 27012G22KT P6SM FEW020 BKN040 
     TEMPO 2916/2918 VRB15G30KT 2SM TSRA BR OVC008CB 
     FM291730 24012G22KT P6SM BKN060 
     PROB30 2919/2921 VRB15G25KT 2SM TSRA BR BKN040 OVC060CB RMK FCST BASED ON AUTO OBS. NXT FCST BY 292000Z
       
TAF CYPR 291238Z 2913/3001 36006KT P6SM BKN012 
     TEMPO 2913/2918 OVC009 
     PROB30 2913/2918 2SM -DZ BR OVC005 
     FM291800 26006KT P6SM BKN012 
     TEMPO 2918/3001 SCT012 BKN200 RMK FCST BASED ON AUTO OBS. NXT FCST BY 291900Z
       
TAF CYPX 291138Z 2912/2924 06010KT P6SM SKC 
     BECMG 2920/2922 06015G25KT RMK FCST BASED ON AUTO OBS. NXT FCST BY 291800Z
       
TAF CYPY 291138Z 2912/2924 VRB03KT P6SM SKC 
     BECMG 2918/2920 18008KT RMK FCST BASED ON AUTO OBS. NXT FCST BY 291800Z
       
TAF AMD CYQA 291412Z 2914/3002 26008KT P6SM SCT015 OVC030 
     TEMPO 2914/2917 BKN008 OVC030 
     FM291700 24012G22KT P6SM SCT060 
     FM292200 22012G22KT P6SM OVC060 
     TEMPO 2922/3002 P6SM -SHRA 
     PROB30 2922/2924 VRB15G30KT 2SM TSRA BR BKN040 OVC060CB RMK FCST BASED ON AUTO OBS. NXT FCST BY 292000Z
       
TAF CYQB 291142Z 2912/3012 07010G20KT P6SM FEW050 BKN120 
     FM291400 09015G25KT P6SM FEW040 SCT080 
     FM292000 12010G20KT P6SM FEW040 BKN240 
     FM300000 13010KT P6SM BKN050 OVC120 
     TEMPO 3000/3004 P6SM -SHRA SCT025 OVC050 
     FM300400 08007KT P6SM -SHRA BKN015 OVC030 RMK NXT FCST BY 291800Z
       
TAF AMD CYQD 291402Z 2914/3001 35012G22KT P6SM -RA OVC015 
     TEMPO 2914/2918 P6SM NSW OVC025 
     FM291800 33015G25KT P6SM BKN030 
     TEMPO 2918/3001 P6SM -RA RMK NXT FCST BY 291900Z
       
TAF CYQF 291138Z 2912/2924 VRB03KT P6SM SKC 
     BECMG 2914/2916 15010KT RMK NXT FCST BY 291800Z
       
TAF CYQG 291139Z 2912/3012 24005KT P6SM SKC 
     BECMG 2913/2915 25012KT 
     FM291800 23015G25KT P6SM SCT060 
     TEMPO 2919/3001 P6SM -SHRA BKN060 
     PROB30 2920/2924 VRB15G30KT 2SM +TSRA BR BKN020 OVC050CB 
     FM300200 25010KT P6SM FEW040 RMK NXT FCST BY 291800Z
       
TAF CYQH 291138Z 2912/2924 13005KT P6SM BKN220 
     FM292200 26010KT P6SM BKN080 RMK NXT FCST BY 291800Z
       
TAF AMD CYQI 291354Z 2913/2924 12008KT P6SM FEW020 
     TEMPO 2913/2916 BKN020 
     FM291800 10012KT P6SM SKC RMK NXT FCST BY 291800Z
       
TAF CYQK 291339Z 2914/3002 33012G22KT 2SM -SHRA BR OVC003 
     TEMPO 2914/2916 P6SM NSW SCT003 OVC012 
     FM291600 33012G22KT 5SM -SHRA BR BKN008 OVC012 
     TEMPO 2916/2918 P6SM NSW SCT008 OVC015 
     FM291800 33012G22KT P6SM OVC030 
     TEMPO 2918/2924 5SM -SHRA BR OVC015 
     FM300000 31010KT P6SM OVC050 RMK NXT FCST BY 292000Z
       
TAF CYQL 291138Z 2912/2924 14008KT P6SM SKC 
     BECMG 2913/2915 14010KT FEW100 RMK FCST BASED ON AUTO OBS. NXT FCST BY 291800Z
       
TAF AMD CYQM 291426Z 2914/3012 05008KT P6SM BKN009 OVC030 
     TEMPO 2914/2915 BKN012 OVC030 
     FM291500 04008KT P6SM OVC020 
     TEMPO 2915/2917 SCT020 OVC060 
     FM291700 05010KT P6SM SCT030 BKN080 
     FM300400 11006KT P6SM BKN050 RMK NXT FCST BY 291800Z
       
TAF CYQQ 291139Z 2912/3012 VRB03KT P6SM SCT240 
     FM291800 VRB03KT P6SM SCT080 BKN250 RMK NXT FCST BY 291800Z
       
TAF CYQR 291138Z 2912/3012 32012KT P6SM BKN060 
     BECMG 2912/2914 34018G28KT SCT060 
     FM291700 33022G35KT P6SM FEW070 
     BECMG 2922/2924 34015G25KT 
     FM300300 36010KT P6SM SKC 
     BECMG 3009/3011 31006KT RMK NXT FCST BY 291800Z
       
TAF AMD CYQT 291613Z 2916/3002 VRB03KT P6SM -SHRA SCT006 OVC060 
     TEMPO 2916/2918 3SM -SHRA BR OVC006 
     FM291800 08005KT 3SM -SHRA BR BKN004 OVC010 
     TEMPO 2918/2921 P6SM -SHRA SCT004 OVC010 
     FM292100 VRB03KT P6SM OVC012 
     TEMPO 2921/3002 5SM -SHRA BR OVC006 
     PROB30 2921/3002 2SM TSRA BR OVC005CB RMK NXT FCST BY 292000Z
       
TAF CYQU 291238Z 2913/3001 08010KT P6SM SCT080 SCT200 
     BECMG 2915/2917 09012G22KT RMK NXT FCST BY 291900Z
       
TAF CYQV 291138Z 2912/2924 30012KT P6SM SCT030 
     TEMPO 2912/2916 BKN030 
     BECMG 2913/2915 33015G25KT 
     FM291600 33020G30KT P6SM BKN040 RMK FCST BASED ON AUTO OBS. NXT FCST BY 291800Z
       
TAF CYQW 291138Z 2912/2924 33006KT P6SM SKC 
     BECMG 2915/2917 34012G22KT RMK FCST BASED ON AUTO OBS. NXT FCST BY 291800Z
       
TAF CYQX 291142Z 2912/3012 16006KT P6SM -RA SCT005 OVC040 
     TEMPO 2912/2914 3SM -RA BR BKN005 OVC020 
     PROB30 2912/2914 2SM -DZ BR OVC003 
     FM291400 11007KT 3SM -RA BR BKN007 OVC015 
     TEMPO 2914/2922 P6SM -RA SCT007 OVC015 
     FM292200 VRB03KT P6SM OVC012 
     TEMPO 2922/3002 5SM -DZ BR 
     FM300200 VRB03KT 3SM BR OVC004 
     FM300400 33007KT 1/2SM -DZ FG VV002 
     FM301100 28007KT 6SM BR SCT003 RMK NXT FCST BY 291800Z
       
TAF CYQY 291139Z 2912/2924 VRB03KT P6SM SCT050 
     BECMG 2913/2915 01009KT RMK NXT FCST BY 291800Z
       
TAF CYQZ 291138Z 2912/2924 VRB03KT P6SM SKC 
     FM292200 VRB03KT P6SM FEW100 
     PROB30 2922/2924 VRB25G35KT 6SM TSRA BKN100CB RMK FCST BASED ON AUTO OBS. NXT FCST BY 291900Z
       
TAF CYRA 291538Z 2916/2924 07006KT P6SM SKC RMK NXT FCST BY 291900Z
       
TAF AMD CYRB 291256Z 2912/3012 32005KT P6SM FEW230 
     FM291600 30008KT P6SM SCT005 OVC012 
     TEMPO 2916/3006 2SM -SN BR OVC005 
     BECMG 3004/3006 03008KT 
     FM300600 03008KT P6SM SCT005 RMK NXT FCST BY 291800Z
       
TAF CYRJ 291339Z 2914/3002 10010KT P6SM FEW060 BKN120 
     FM292100 16008KT P6SM BKN060 
     TEMPO 2921/3002 P6SM -SHRA RMK NXT FCST BY 292000Z
       
TAF CYRL 291339Z 2914/3002 32012KT 5SM -SHRA BR OVC007 
     TEMPO 2914/2918 P6SM NSW OVC012 
     FM291800 32010G20KT 5SM -SHRA BR BKN015 OVC030 
     TEMPO 2918/2924 P6SM NSW SCT015 OVC030 
     FM300000 32008KT P6SM OVC050 RMK NXT FCST BY 292000Z
       
TAF CYRQ 291339Z 2914/3002 07012KT P6SM BKN220 
     FM291600 07012KT P6SM BKN120 
     FM291800 15010G20KT P6SM SCT050 BKN120 
     TEMPO 2918/2921 P6SM -SHRA BKN050 OVC120 
     FM292100 20010G20KT P6SM -RA OVC030 
     TEMPO 2921/3002 5SM -RA BR OVC020 
     BECMG 2922/2924 16010G20KT RMK FCST BASED ON AUTO OBS. NXT FCST BY 292000Z
       
TAF CYRT 291138Z 2912/2924 03008KT P6SM SCT140 RMK NXT FCST BY 291800Z
       
TAF CYSB 291338Z 2914/3002 25004KT P6SM BKN008 OVC050 
     BECMG 2914/2916 SCT050 
     FM291600 23010G20KT P6SM SCT050 
     TEMPO 2916/3002 4SM -SHRA BR BKN050 
     PROB30 2920/3002 VRB20G30KT 2SM +TSRA BR BKN010 OVC030CB RMK NXT FCST BY 292000Z
       
TAF CYSC 291038Z 2911/2923 10006KT P6SM SCT060 OVC110 
     TEMPO 2911/2913 5SM HZ BR 
     BECMG 2913/2915 13012G22KT 
     FM292100 16012G22KT P6SM -RA BKN030 OVC060 RMK FCST BASED ON AUTO OBS. NXT FCST BY 291800Z
       
TAF CYSF 291138Z 2912/2924 26005KT P6SM SKC 
     BECMG 2918/2920 29010KT RMK FCST BASED ON AUTO OBS. NXT FCST BY 291800Z
       
TAF AMD CYSJ 291611Z 2916/2924 08010KT P6SM SCT020 BKN070 
     TEMPO 2916/2918 BKN020 
     FM292000 10010KT P6SM BKN050 RMK NXT FCST BY 291800Z
       
TAF CYSM 291138Z 2912/2924 VRB03KT P6SM SKC 
     BECMG 2918/2920 22010KT RMK NXT FCST BY 291800Z
       
TAF AMD CYSN 291629Z 2916/3001 23012KT P6SM SCT015 
     TEMPO 2916/2919 2SM TSRA BR OVC015CB 
     FM291900 22012KT P6SM SCT015 
     TEMPO 2919/2921 5SM -SHRA BR BKN015 
     PROB30 2919/2921 2SM TSRA BR OVC015CB 
     FM292100 22012KT P6SM BKN080 RMK NXT FCST BY 292000Z
       
TAF CYSP 291339Z 2914/2921 VRB03KT 0SM FG VV000 
     TEMPO 2914/2918 1/2SM FG VV002 
     FM291800 21008KT 1SM BR OVC004 
     PROB30 2919/2921 2SM +TSRA BR BKN004 OVC010CB RMK NXT FCST WILL BE ISSUED AT 301345Z
       
TAF CYTE 291238Z 2913/3001 27008KT P6SM FEW120 RMK NXT FCST BY 291900Z
       
TAF CYTH 291238Z 2913/3001 35012KT 3SM -RA -DZ BR OVC005 
     TEMPO 2913/2917 P6SM NSW OVC010 
     FM291700 35015KT 6SM -RA BR OVC008 
     TEMPO 2917/3001 P6SM NSW OVC012 RMK NXT FCST BY 291900Z
       
TAF CYTL 291339Z 2914/3002 36007KT 5SM -SHRA BR BKN004 OVC015 
     TEMPO 2914/2921 P6SM NSW SCT004 OVC015 
     FM292100 34012KT P6SM SCT012 OVC070 
     TEMPO 2921/3002 5SM -SHRA BR OVC012 RMK FCST BASED ON AUTO OBS. NXT FCST BY 292000Z
       
TAF CYTQ 291339Z 2914/2921 04005KT P6SM SCT040 RMK NXT FCST WILL BE ISSUED AT 301345Z
       
TAF AMD CYTR 291608Z 2916/3012 20008KT P6SM OVC005 
     BECMG 2916/2918 SCT030 
     FM291800 22010KT P6SM SCT030 
     TEMPO 2918/2923 3SM -SHRA BR BKN030 
     PROB30 2918/2921 VRB15G25KT 2SM TSRA BR BKN020CB 
     FM300600 22008KT 6SM -SHRA BR OVC030 
     PROB30 3006/3009 VRB15G25KT 2SM TSRA BR BKN008 OVC020CB 
     FM300900 22008KT 6SM BR OVC008 RMK NXT FCST BY 291800Z
       
TAF CYTS 291339Z 2914/3002 VRB03KT P6SM FEW009 SCT030 
     TEMPO 2914/2917 5SM BR BKN009 OVC030 
     FM291700 21008KT P6SM BKN040 
     TEMPO 2917/3002 4SM -SHRA BR 
     PROB30 2918/3001 2SM +TSRA BR BKN020CB RMK NXT FCST BY 292000Z
       
TAF AMD CYTZ 291642Z 2916/3014 18012KT P6SM SCT060 
     TEMPO 2916/2918 2SM TSRA BR BKN060CB 
     FM291730 24010G20KT P6SM FEW040 
     FM292300 26010KT P6SM SCT015 BKN070 
     TEMPO 3001/3004 BKN020 
     FM300400 23005KT 6SM BR SCT100 
     FM300700 21008KT 3SM BR BKN006 
     BECMG 3011/3013 22010G20KT RMK FCST BASED ON AUTO OBS. NXT FCST BY 292000Z
       
TAF CYUB 291439Z 2915/3003 09012KT P6SM FEW090 RMK NXT FCST BY 291900Z
       
TAF CYUL 291438Z 2915/3012 13015G25KT P6SM BKN060 OVC120 
     TEMPO 2915/2919 P6SM -SHRA BKN030 OVC060 
     FM291900 15015G25KT P6SM -RA BKN030 OVC060 
     FM292100 15012G22KT 6SM -SHRA BR OVC020 
     TEMPO 2921/3001 5SM -SHRA BR 
     FM300100 15012KT P6SM OVC025 RMK NXT FCST BY 291800Z
       
TAF CYUT 291339Z 2914/2922 35007KT P6SM SCT004 BKN120 BKN220 
     TEMPO 2914/2915 BKN004 
     FM292100 35010KT P6SM SCT060 BKN120 BKN220 RMK NXT FCST BY 291900Z
       
TAF CYUX 291238Z 2913/3001 36007KT 1SM -FZDZ -SN BR OVC003 
     TEMPO 2913/2917 P6SM NSW OVC005 
     FM291700 34005KT P6SM SCT005 
     TEMPO 2917/2920 BKN005 RMK NXT FCST BY 291900Z
       
TAF AMD CYUY 291450Z 2914/2924 14005KT 2SM -SHRA BR BKN006 OVC025 
     TEMPO 2914/2917 P6SM -SHRA SCT006 OVC025 
     FM291700 22008KT P6SM SCT010 OVC050 
     TEMPO 2917/2923 4SM -SHRA BR OVC010 
     PROB30 2917/2923 VRB15G25KT 2SM +TSRA BR BKN010 OVC030CB 
     FM292300 19010KT P6SM -SHRA OVC050 
     PROB40 2923/2924 VRB20G30KT 2SM +TSRA BR BKN010 OVC030CB RMK NXT FCST BY 291800Z
       
TAF CYVC 291238Z 2913/3001 33008KT P6SM SCT030 
     TEMPO 2913/2917 BKN030 
     FM291700 34012KT P6SM FEW050 RMK NXT FCST BY 291900Z
       
TAF CYVM 291238Z 2913/3001 VRB03KT P6SM SCT060 BKN110 
     TEMPO 2913/2915 OVC060 
     FM291500 VRB03KT P6SM SCT030 OVC070 
     TEMPO 2915/2918 P6SM -SN OVC030 
     BECMG 2915/2917 36007KT 
     FM291800 36007KT P6SM SCT012 OVC030 
     TEMPO 2918/3001 5SM -SN OVC012 RMK NXT FCST BY 291900Z
       
TAF AMD CYVO 291420Z 2914/2924 12010G20KT 2SM -SHRA BR OVC020 
     TEMPO 2914/2916 6SM -SHRA BR OVC025 
     FM291600 14015G25KT 6SM -SHRA BR OVC025 
     TEMPO 2916/2918 2SM SHRA BR FEW008 OVC012 
     FM291800 13018G28KT P6SM -SHRA BKN020 
     PROB30 2918/2924 VRB15G25KT 2SM +TSRA BR BKN010 OVC030CB RMK NXT FCST BY 291800Z
       
TAF CYVP 291142Z 2912/2924 VRB03KT P6SM FEW210 
     BECMG 2919/2921 06008KT RMK NXT FCST BY 291800Z
       
TAF CYVQ 291138Z 2912/2924 09008KT P6SM SCT100 SCT200 
     BECMG 2917/2919 12015KT 
     FM292100 12015KT P6SM BKN060 RMK NXT FCST BY 291800Z
       
TAF CYVR 291439Z 2915/3018 VRB03KT P6SM FEW240 
     BECMG 2916/2918 25008KT 
     BECMG 3003/3005 10009KT 
     FM300700 10009KT P6SM BKN100 
     FM301300 11010KT P6SM -SHRA BKN040 OVC080 RMK NXT FCST BY 291800Z
       
TAF CYVT 291339Z 2914/3002 36005KT P6SM FEW250 RMK NXT FCST BY 291900Z
       
TAF CYVV 291338Z 2914/2923 24008KT 3/4SM BR OVC003 
     TEMPO 2914/2917 P6SM NSW SCT003 
     FM291700 23012KT P6SM SKC 
     FM292100 22012G22KT P6SM SCT080 
     PROB30 2922/2923 VRB20G30KT 2SM TSRA BR BKN060 OVC080CB RMK NXT FCST BY 292000Z
       
TAF AMD CYWA 291418Z 2914/2924 13008KT 2SM -SHRA BR BKN003 OVC010 
     TEMPO 2914/2918 P6SM -SHRA BKN010 OVC020 
     PROB30 2914/2918 VRB15G25KT 2SM TSRA BR BKN003 OVC010CB 
     FM291800 24006KT P6SM SCT020 BKN030 
     TEMPO 2918/2920 5SM -SHRA BR BKN020 OVC030 
     BECMG 2920/2922 FEW020 SCT030 RMK FCST BASED ON AUTO OBS. NXT FCST BY 291800Z
       
TAF CYWE 291238Z 2913/3001 06010KT P6SM SCT080 RMK FCST BASED ON AUTO OBS. NXT FCST BY 291900Z
       
TAF CYWG 291138Z 2912/3012 35006KT P6SM SCT012 OVC030 
     TEMPO 2912/2916 6SM -RA BR OVC012 
     BECMG 2912/2914 33015KT 
     FM291600 34020G30KT P6SM OVC030 
     TEMPO 2916/2924 P6SM -RA OVC020 
     FM300000 34012G22KT P6SM OVC025 
     TEMPO 3000/3012 6SM -RA BR OVC020 RMK NXT FCST BY 291800Z
       
TAF CYWH 291410Z 2914/3002 23005KT P6SM FEW250 
     FM291800 22010KT P6SM FEW250 
     FM292200 24012KT P6SM SKC RMK NXT FCST BY 291800Z
       
TAF CYWJ 291413Z 2914/2923 09012G22KT P6SM FEW200 RMK NXT FCST BY 291800Z
       
TAF CYWK 291339Z 2914/3002 17010KT P6SM SKC 
     BECMG 2914/2916 13008KT RMK NXT FCST BY 292000Z
       
TAF CYWL 291238Z 2913/3001 VRB03KT P6SM SKC RMK NXT FCST BY 291900Z
       
TAF CYXC 291238Z 2913/3001 27006KT P6SM SKC 
     FM291800 VRB03KT P6SM SCT080 
     TEMPO 2919/3001 P6SM -SHRA BKN080 
     PROB30 2920/3001 VRB15G25KT P6SM -TSRA BKN070CB RMK NXT FCST BY 291900Z
       
TAF CYXE 291138Z 2912/3012 31010KT P6SM SKC 
     BECMG 2914/2916 34015G25KT 
     FM300200 01008KT P6SM SKC 
     BECMG 3005/3007 08005KT RMK NXT FCST BY 291800Z
       
TAF CYXH 291138Z 2912/2924 VRB03KT P6SM SKC 
     BECMG 2913/2915 12008KT 
     BECMG 2916/2918 09010KT RMK FCST BASED ON AUTO OBS. NXT FCST BY 291800Z
       
TAF CYXJ 291238Z 2913/3001 11010KT P6SM FEW220 
     FM292000 13012G22KT P6SM FEW100 RMK NXT FCST BY 291900Z
       
TAF CYXL 291339Z 2914/3002 35008KT 4SM -SHRA BR BKN006 OVC015 
     TEMPO 2914/2918 P6SM NSW SCT006 OVC015 
     FM291800 32010KT 5SM -SHRA BR BKN015 OVC030 
     TEMPO 2918/3002 P6SM NSW SCT015 OVC030 RMK NXT FCST BY 292000Z
       
TAF CYXP 291238Z 2913/2922 26008KT P6SM FEW006 SCT040 OVC070 
     TEMPO 2913/2916 P6SM -SN OVC040 
     FM291600 27010KT P6SM SCT070 
     TEMPO 2916/2919 BKN070 
     FM291900 27010KT P6SM SCT005 OVC020 
     TEMPO 2919/2922 5SM -RA BR OVC005 RMK NXT FCST BY 291900Z
       
TAF AMD CYXR 291513Z 2915/2924 17005KT P6SM BKN008 OVC070 
     TEMPO 2915/2917 SCT008 BKN070 
     FM291700 21010KT P6SM SCT040 
     TEMPO 2917/2924 4SM -SHRA BR BKN040 
     PROB30 2918/2920 2SM +TSRA BR BKN010 OVC030CB RMK FCST BASED ON AUTO OBS. NXT FCST BY 291800Z
       
TAF CYXS 291238Z 2913/3001 17006KT P6SM SKC 
     FM291800 20007KT P6SM SKC 
     FM292200 22007KT P6SM FEW090 
     PROB30 2922/3001 VRB25G40KT 6SM TSRA BKN090CB RMK FCST BASED ON AUTO OBS. NXT FCST BY 291900Z
       
TAF CYXT 291238Z 2913/3001 VRB03KT P6SM SCT220 
     FM292000 18010KT P6SM SCT070 RMK NXT FCST BY 291900Z
       
TAF CYXU 291139Z 2912/3012 25005KT 6SM BR SCT004 BKN030 
     TEMPO 2912/2913 3SM BR OVC004 
     FM291300 26010KT P6SM SCT012 
     TEMPO 2913/2914 BKN012 
     FM291800 24012G22KT P6SM SCT060 
     PROB30 2920/2921 21/2SM +TSRA BR BKN025 OVC050CB 
     FM292100 27015G25KT P6SM BKN040 
     TEMPO 2921/3002 P6SM -SHRA OVC040 
     PROB40 2921/3001 11/2SM +TSRA BR BKN015 OVC040CB 
     FM300200 21010KT 6SM BR SCT007 BKN050 
     FM300400 19005KT 2SM -DZ BR BKN006 OVC025 
     FM301100 24010KT P6SM SCT008 BKN025 RMK NXT FCST BY 291800Z
       
TAF CYXX 291138Z 2912/3012 22007KT P6SM SKC 
     FM300800 20005KT P6SM BKN100 RMK NXT FCST BY 291800Z
       
TAF CYXY 291138Z 2912/3012 20005KT P6SM BKN160 
     FM291600 16015G25KT P6SM FEW050 SCT120 
     FM300500 16008KT P6SM FEW240 RMK NXT FCST BY 291800Z
       
TAF CYXZ 291242Z 2913/2924 VRB03KT 3/8SM FG VV002 
     TEMPO 2913/2915 2SM BR BKN006 
     FM291500 20008KT 6SM BR SCT006 
     TEMPO 2915/2917 2SM BR BKN006 
     FM291700 22010KT P6SM SCT020 
     TEMPO 2917/2924 BKN020 
     PROB30 2918/2924 VRB15G25KT 2SM +TSRA BR BKN010 OVC030CB RMK NXT FCST BY 292000Z
       
TAF AMD CYYB 291620Z 2916/3002 22010KT P6SM OVC005 
     TEMPO 2916/2918 SCT005 OVC060 
     FM291800 22010G20KT P6SM SCT050 
     TEMPO 2918/3002 4SM -SHRA BR BKN050 
     PROB30 2919/3002 VRB20G30KT 2SM +TSRA BR BKN010 OVC030CB RMK NXT FCST BY 292000Z
       
TAF CYYC 291439Z 2915/3012 19008KT P6SM FEW250 
     BECMG 2915/2917 15012G22KT 
     FM300000 15012G22KT P6SM SCT100 
     BECMG 3004/3006 15010KT SKC RMK NXT FCST BY 291800Z
       
TAF CYYD 291339Z 2914/3002 VRB03KT P6SM SCT250 
     FM292000 30010KT P6SM SCT090 BKN250 
     BECMG 3000/3002 VRB03KT RMK FCST BASED ON AUTO OBS. NXT FCST BY 291900Z
       
TAF CYYE 291238Z 2913/3001 VRB03KT P6SM SCT220 
     BECMG 2916/2918 12008KT 
     FM292100 12008KT P6SM FEW090 SCT160 RMK NXT FCST BY 291900Z
       
TAF CYYF 291238Z 2913/3001 VRB03KT P6SM SKC 
     FM291800 18008KT P6SM SCT080 RMK NXT FCST BY 291900Z
       
TAF AMD CYYG 291321Z 2913/2924 02010KT P6SM SCT005 BKN060 
     TEMPO 2913/2914 BKN005 
     FM291400 02010KT P6SM FEW015 SCT060 
     TEMPO 2914/2915 BKN015 
     FM291800 04010KT P6SM SKC RMK NXT FCST BY 291800Z
       
TAF CYYH 291138Z 2912/2924 VRB03KT P6SM FEW020 BKN050 
     TEMPO 2912/2921 P6SM -RA 
     FM292100 VRB03KT P6SM SCT040 
     TEMPO 2921/2924 BKN040 RMK NXT FCST BY 291800Z
       
TAF CYYJ 291138Z 2912/3012 VRB03KT P6SM SKC 
     BECMG 2916/2918 12007KT 
     BECMG 3002/3004 VRB03KT 
     FM300700 VRB03KT P6SM BKN100 RMK NXT FCST BY 291800Z
       
TAF CYYL 291238Z 2913/3001 01010KT P6SM -RA SCT008 OVC015 
     TEMPO 2913/2915 5SM -RA BR OVC008 
     FM291500 36015G25KT 6SM -RA BR OVC015 
     TEMPO 2915/2919 P6SM NSW OVC025 
     FM291900 01015G25KT P6SM BKN030 
     BECMG 2919/2921 FEW030 RMK FCST BASED ON AUTO OBS. NXT FCST BY 291900Z
       
TAF CYYN 291138Z 2912/2924 25008KT P6SM SKC 
     BECMG 2913/2915 33010KT 
     FM291700 34015G25KT P6SM SKC RMK FCST BASED ON AUTO OBS. NXT FCST BY 291800Z
       
TAF AMD CYYQ 291605Z 2916/3012 01012KT P6SM SCT005 BKN060 
     TEMPO 2916/2918 5SM BR BKN005 OVC060 
     FM291800 01015KT P6SM SCT005 OVC025 
     BECMG 2918/2920 2SM -RA BR OVC005 
     FM292000 36015KT 2SM -RA -DZ BR OVC004 
     TEMPO 2920/3012 6SM BR RMK NXT FCST BY 291800Z
       
TAF CYYR 291130Z 2912/3012 24005KT P6SM FEW080 FEW250 
     BECMG 2914/2916 30008KT 
     BECMG 3001/3003 24005KT RMK NXT FCST BY 291800Z
       
TAF CYYT 291142Z 2912/3012 05008KT P6SM FEW010 BKN040 OVC070 
     TEMPO 2912/2915 5SM -RA BR SCT004 BKN010 OVC040 
     FM291500 03010KT P6SM SCT020 BKN040 
     TEMPO 2915/2923 BKN020 
     FM292300 35008KT P6SM SCT004 OVC040 
     TEMPO 2923/3001 6SM BR BKN004 
     PROB30 2923/3001 2SM BR OVC003 
     FM300100 34008KT 1/2SM FG VV002 
     BECMG 3004/3006 31007KT 
     FM301000 29008KT 6SM BR OVC004 RMK NXT FCST BY 291800Z
       
TAF CYYU 291339Z 2914/3002 20008KT P6SM FEW008 BKN040 
     TEMPO 2914/2916 5SM BR BKN008 OVC040 
     FM291600 23010KT P6SM BKN040 
     TEMPO 2916/3002 4SM -SHRA BR BKN020 
     PROB30 2918/2924 2SM +TSRA BR BKN015 OVC030CB RMK NXT FCST BY 292000Z
       
TAF CYYY 291339Z 2914/3002 10010KT P6SM BKN030 
     FM291800 10010KT P6SM SCT030 BKN080 RMK NXT FCST BY 292000Z
       
TAF AMD CYYZ 291612Z 2916/3018 25012G22KT P6SM SCT020 BKN030 
     TEMPO 2916/2918 6SM -SHRA BR BKN020 
     PROB30 2916/2917 2SM TSRA BR BKN025CB 
     FM291800 27015G25KT P6SM FEW050 
     FM292200 25012G22KT P6SM SCT060 
     TEMPO 2922/3001 P6SM -SHRA BKN060 
     PROB30 2922/3001 21/2SM TSRA BR BKN025 OVC050CB 
     FM300100 23012KT P6SM BKN080 
     FM300500 17007KT 6SM BR FEW006 SCT080 
     FM300900 22006KT 3SM -DZ BR BKN005 OVC010 
     FM301400 23010KT P6SM BKN025 
     TEMPO 3014/3018 OVC020 
     BECMG 3015/3017 24015G25KT RMK NXT FCST BY 291800Z
       
TAF CYZE 291338Z 2914/2922 VRB03KT 1/4SM FG VV002 
     BECMG 2914/2916 P6SM NSW OVC025 
     FM291600 22010KT P6SM SCT030 
     TEMPO 2916/2920 4SM -SHRA BR BKN030 
     PROB30 2921/2922 VRB15G25KT 2SM +TSRA BR BKN010 OVC030CB RMK FCST BASED ON AUTO OBS. NXT FCST BY 292000Z
       
TAF CYZF 291138Z 2912/3012 20008KT P6SM BKN100 
     FM291800 14005KT P6SM SCT100 
     BECMG 3004/3006 11010KT 
     FM300900 10012KT P6SM BKN100 RMK NXT FCST BY 291800Z
       
TAF CYZG 291339Z 2914/2921 VRB03KT P6SM FEW150 SCT210 
     BECMG 2915/2917 20010KT RMK NXT FCST WILL BE ISSUED AT 301345Z
       
TAF CYZH 291238Z 2913/3001 12008KT P6SM SKC 
     BECMG 2915/2917 12012KT RMK FCST BASED ON AUTO OBS. NXT FCST BY 291900Z
       
TAF CYZP 291238Z 2913/3001 26010KT P6SM FEW006 BKN015 
     TEMPO 2913/3001 BKN025 
     BECMG 2918/2920 11010KT RMK FCST BASED ON AUTO OBS. NXT FCST BY 291900Z
       
TAF CYZR 291339Z 2914/3002 25010KT P6SM FEW060 
     BECMG 2914/2916 23010G20KT 
     FM291800 22010G20KT P6SM BKN060 
     TEMPO 2918/3001 P6SM -SHRA 
     PROB30 2918/2923 VRB15G30KT 2SM TSRA BR BKN040 OVC060CB RMK FCST BASED ON AUTO OBS. NXT FCST BY 292000Z
       
TAF CYZS 291238Z 2913/3001 VRB03KT P6SM FEW070 BKN160 
     BECMG 2915/2917 06007KT RMK NXT FCST BY 291900Z
       
TAF CYZT 291238Z 2913/3001 VRB03KT P6SM OVC010 
     TEMPO 2913/2918 3SM -DZ BR OVC005 
     PROB30 2913/2917 1/2SM -DZ FG VV002 
     FM291800 02007KT P6SM SCT009 
     TEMPO 2918/2920 BKN009 
     FM292200 34010KT P6SM SCT030 BKN240 RMK NXT FCST BY 291900Z
       
TAF CYZU 291410Z 2914/2923 09010KT P6SM FEW100 
     BECMG 2918/2920 13012KT RMK NXT FCST BY 291900Z
       
TAF CYZV 291139Z 2912/3012 07008KT P6SM FEW020 
     BECMG 2913/2915 11012KT 
     FM291500 14012KT P6SM SKC 
     BECMG 2922/2924 08010KT 
     FM300600 07010KT P6SM BKN060 RMK NXT FCST BY 291800Z
       
TAF CYZX 291130Z 2912/3012 VRB03KT P6SM BKN015 
     TEMPO 2912/2915 BKN025 
     FM291500 07006KT P6SM BKN030 
     FM292300 VRB03KT P6SM SCT030 BKN250 
     FM300700 VRB03KT P6SM BKN020 BKN180 RMK NXT FCST BY 291800Z
       
TAF CYZY 291439Z 2915/3003 16006KT P6SM SCT250 
     FM292000 16010KT P6SM SCT080 
     PROB30 2920/2923 VRB20G30KT 6SM TSRA BKN080CB RMK FCST BASED ON AUTO OBS. NXT FCST BY 291900Z
       
TAF CYEK 291138Z 2912/2924 02012G22KT P6SM SCT070 BKN120 
     TEMPO 2912/2914 BKN070 
     FM291400 02015G25KT P6SM BKN120 
     BECMG 2921/2923 02010KT RMK FCST BASED ON AUTO OBS. NXT FCST BY 291800Z
       
TAF CYBG 291430Z 2915/3012 10020G30KT P6SM FEW030 BKN110 BKN240 
     FM292000 10020G30KT P6SM SCT030 BKN200 
     BECMG 3000/3002 10012KT 
     FM300600 10012KT P6SM OVC030 
     TEMPO 3006/3012 P6SM -SHRA RMK NXT FCST BY 291800Z
       
TAF CYBC 291339Z 2914/3002 08015KT P6SM BKN040 
     BECMG 2914/2916 09015G25KT 
     BECMG 2922/2924 08012KT RMK FCST BASED ON AUTO OBS. NXT FCST BY 292000Z
       
TAF CYBK 291138Z 2912/2924 34007KT P6SM -RA SCT015 OVC040 
     TEMPO 2912/2915 5SM -RA BR OVC015 
     BECMG 2913/2915 VRB03KT 
     FM291500 VRB03KT P6SM -RA SCT008 OVC025 
     TEMPO 2915/2921 2SM -RA BR OVC008 
     PROB30 2915/2921 1SM BR VV005 
     FM292100 VRB03KT P6SM -RA OVC030 
     TEMPO 2921/2924 OVC020 RMK NXT FCST BY 291800Z
       
TAF CZBF 291339Z 2914/3002 09006KT P6SM BKN015 OVC050 
     TEMPO 2914/3002 FEW015 BKN050 
     BECMG 2919/2921 12007KT RMK NXT FCST BY 292000Z
       
TAF AMD CYBR 291337Z 2913/2924 32012KT P6SM SCT020 BKN050 
     BECMG 2913/2915 32015G25KT BKN020 
     FM291500 34018G28KT P6SM BKN030 
     TEMPO 2915/2924 P6SM -SHRA BKN020 RMK NXT FCST BY 291800Z
       
TAF CYVT 291339Z 2914/3002 36005KT P6SM FEW250 RMK NXT FCST BY 291900Z
       
TAF CYDB 291138Z 2912/2924 13012G22KT P6SM BKN200 
     FM291800 13020G30KT P6SM FEW200 RMK FCST BASED ON AUTO OBS. NXT FCST BY 291800Z
       
TAF CYYC 291439Z 2915/3012 19008KT P6SM FEW250 
     BECMG 2915/2917 15012G22KT 
     FM300000 15012G22KT P6SM SCT100 
     BECMG 3004/3006 15010KT SKC RMK NXT FCST BY 291800Z
       
TAF CYBW 291138Z 2912/2924 13005KT P6SM SKC 
     FM291800 13010KT P6SM FEW100 
     BECMG 2922/2924 BKN100 RMK FCST BASED ON AUTO OBS. NXT FCST BY 291800Z
       
TAF AMD CYCB 291508Z 2915/3001 03010KT P6SM SCT006 OVC012 
     TEMPO 2915/2921 2SM -DZ BR OVC006 
     FM292100 35005KT P6SM SCT008 OVC020 RMK NXT FCST BY 291900Z
       
TAF CYBL 291439Z 2915/3003 32005KT P6SM SCT260 
     BECMG 2918/2920 07005KT RMK NXT FCST BY 291900Z
       
TAF CYTE 291238Z 2913/3001 27008KT P6SM FEW120 RMK NXT FCST BY 291900Z
       
TAF CYCG 291439Z 2915/3003 VRB03KT P6SM FEW230 
     FM291800 35008KT P6SM SCT090 
     FM292000 35008KT P6SM VCSH BKN080 RMK NXT FCST BY 291900Z
       
TAF AMD CYLD 291651Z 2916/3001 19010KT P6SM SCT015 BKN090 
     TEMPO 2916/2918 4SM -SHRA BR BKN015 OVC090 
     FM291710 21008KT P6SM -SHRA OVC040 
     TEMPO 2917/2919 2SM +TSRA BR BKN010 OVC030CB 
     FM291830 21008KT P6SM SCT040 
     TEMPO 2918/3001 4SM -SHRA BR BKN040 
     PROB30 2918/3001 3SM TSRA BR OVC050CB RMK NXT FCST BY 292000Z
       
TAF AMD CYYG 291321Z 2913/2924 02010KT P6SM SCT005 BKN060 
     TEMPO 2913/2914 BKN005 
     FM291400 02010KT P6SM FEW015 SCT060 
     TEMPO 2914/2915 BKN015 
     FM291800 04010KT P6SM SKC RMK NXT FCST BY 291800Z
       
TAF CYMT 291139Z 2912/2924 12012G22KT P6SM FEW070 OVC100 
     TEMPO 2912/2920 OVC070 
     BECMG 2912/2914 12015G25KT 
     FM292000 12015G25KT P6SM -SHRA BKN050 RMK FCST BASED ON AUTO OBS. NXT FCST BY 291800Z
       
TAF AMD CYYQ 291605Z 2916/3012 01012KT P6SM SCT005 BKN060 
     TEMPO 2916/2918 5SM BR BKN005 OVC060 
     FM291800 01015KT P6SM SCT005 OVC025 
     BECMG 2918/2920 2SM -RA BR OVC005 
     FM292000 36015KT 2SM -RA -DZ BR OVC004 
     TEMPO 2920/3012 6SM BR RMK NXT FCST BY 291800Z
       
TAF CZUM 291339Z 2914/3002 VRB03KT P6SM SKC 
     BECMG 2914/2916 30006KT RMK FCST BASED ON AUTO OBS. NXT FCST BY 292000Z
       
TAF AMD CYCY 291322Z 2913/3001 32020KT P6SM SCT020 BKN050 
     TEMPO 2913/2919 3SM -SN BKN020 OVC050 
     FM291900 32015KT P6SM BKN050 RMK NXT FCST BY 291900Z
       
TAF CYOD 291430Z 2915/3012 VRB03KT P6SM FEW250 
     BECMG 2916/2918 03008KT 
     FM300600 12005KT P6SM SCT250 RMK NXT FCST BY 291800Z
       
TAF CYQQ 291139Z 2912/3012 VRB03KT P6SM SCT240 
     FM291800 VRB03KT P6SM SCT080 BKN250 RMK NXT FCST BY 291800Z
       
TAF CYZS 291238Z 2913/3001 VRB03KT P6SM FEW070 BKN160 
     BECMG 2915/2917 06007KT RMK NXT FCST BY 291900Z
       
TAF CYXC 291238Z 2913/3001 27006KT P6SM SKC 
     FM291800 VRB03KT P6SM SCT080 
     TEMPO 2919/3001 P6SM -SHRA BKN080 
     PROB30 2920/3001 VRB15G25KT P6SM -TSRA BKN070CB RMK NXT FCST BY 291900Z
       
TAF AMD CYDN 291441Z 2914/2924 33018G28KT P6SM SCT020 BKN040 
     TEMPO 2914/2924 5SM -SHRA BR BKN020 OVC040 RMK FCST BASED ON AUTO OBS. NXT FCST BY 291800Z
       
TAF CYDA 291538Z 2916/2923 VRB03KT P6SM SCT060 BKN140 
     FM292100 24006KT P6SM SCT070 
     TEMPO 2921/2923 BKN070 RMK NXT FCST BY 291800Z
       
TAF CYDQ 291238Z 2913/3001 VRB03KT P6SM SKC 
     FM291900 12010G20KT P6SM FEW100 RMK FCST BASED ON AUTO OBS. NXT FCST BY 291900Z
       
TAF CYDL 291538Z 2916/3002 08006KT P6SM FEW150 BKN220 
     FM291800 22006KT P6SM FEW080 BKN220 RMK FCST BASED ON AUTO OBS. NXT FCST BY 291800Z
       
TAF AMD CYDF 291608Z 2916/3002 06005KT P6SM FEW015 BKN030 
     TEMPO 2916/2918 BKN015 
     FM291800 03008KT P6SM BKN025 
     FM300000 04006KT P6SM SCT030 RMK NXT FCST BY 292000Z
       
TAF CYWJ 291413Z 2914/2923 09012G22KT P6SM FEW200 RMK NXT FCST BY 291800Z
       
TAF CYHD 291339Z 2914/3002 31006KT 5SM -SHRA BR BKN005 OVC015 
     TEMPO 2914/2916 P6SM NSW SCT005 OVC015 
     FM291600 32012KT 5SM -SHRA BR OVC015 
     TEMPO 2916/3002 P6SM NSW OVC030 RMK FCST BASED ON AUTO OBS. NXT FCST BY 292000Z
       
TAF AMD CYXR 291513Z 2915/2924 17005KT P6SM BKN008 OVC070 
     TEMPO 2915/2917 SCT008 BKN070 
     FM291700 21010KT P6SM SCT040 
     TEMPO 2917/2924 4SM -SHRA BR BKN040 
     PROB30 2918/2920 2SM +TSRA BR BKN010 OVC030CB RMK FCST BASED ON AUTO OBS. NXT FCST BY 291800Z
       
TAF CYEG 291439Z 2915/3012 11006KT P6SM SCT250 
     BECMG 2915/2917 14010KT 
     FM292200 14012KT P6SM SKC RMK NXT FCST BY 291800Z
       
TAF CZVL 291138Z 2912/2924 VRB03KT P6SM SKC 
     BECMG 2915/2917 12010KT RMK FCST BASED ON AUTO OBS. NXT FCST BY 291800Z
       
TAF CYEN 291138Z 2912/2924 31012KT P6SM SCT030 
     TEMPO 2912/2917 BKN030 
     BECMG 2913/2915 32015G25KT 
     FM291700 33020G30KT P6SM SCT050 RMK NXT FCST BY 291800Z
       
TAF CZFA 291538Z 2916/2922 VRB03KT P6SM BKN160 
     FM292000 22010KT P6SM SCT090 BKN200 RMK NXT FCST BY 291800Z
       
TAF CYPY 291138Z 2912/2924 VRB03KT P6SM SKC 
     BECMG 2918/2920 18008KT RMK FCST BASED ON AUTO OBS. NXT FCST BY 291800Z
       
TAF CYGH 291413Z 2914/2923 08010KT P6SM FEW090 RMK NXT FCST BY 291800Z
       
TAF CYMM 291238Z 2913/3001 VRB03KT P6SM SKC 
     BECMG 2919/2921 10008KT RMK FCST BASED ON AUTO OBS. NXT FCST BY 291900Z
       
TAF CZFM 291439Z 2915/2923 34005KT P6SM BKN100 RMK NXT FCST BY 291900Z
       
TAF CYYE 291238Z 2913/3001 VRB03KT P6SM SCT220 
     BECMG 2916/2918 12008KT 
     FM292100 12008KT P6SM FEW090 SCT160 RMK NXT FCST BY 291900Z
       
TAF CYFS 291138Z 2912/2924 VRB03KT P6SM SCT200 
     BECMG 2917/2919 13008KT 
     FM292100 13010KT P6SM BKN060 RMK NXT FCST BY 291800Z
       
TAF CYSM 291138Z 2912/2924 VRB03KT P6SM SKC 
     BECMG 2918/2920 22010KT RMK NXT FCST BY 291800Z
       
TAF CYXJ 291238Z 2913/3001 11010KT P6SM FEW220 
     FM292000 13012G22KT P6SM FEW100 RMK NXT FCST BY 291900Z
       
TAF AMD CYFC 291519Z 2915/2924 05010KT P6SM BKN012 OVC040 
     TEMPO 2915/2918 SCT012 BKN040 
     FM291800 07010KT P6SM BKN040 RMK FCST BASED ON AUTO OBS. NXT FCST BY 291800Z
       
TAF CYQX 291142Z 2912/3012 16006KT P6SM -RA SCT005 OVC040 
     TEMPO 2912/2914 3SM -RA BR BKN005 OVC020 
     PROB30 2912/2914 2SM -DZ BR OVC003 
     FM291400 11007KT 3SM -RA BR BKN007 OVC015 
     TEMPO 2914/2922 P6SM -RA SCT007 OVC015 
     FM292200 VRB03KT P6SM OVC012 
     TEMPO 2922/3002 5SM -DZ BR 
     FM300200 VRB03KT 3SM BR OVC004 
     FM300400 33007KT 1/2SM -DZ FG VV002 
     FM301100 28007KT 6SM BR SCT003 RMK NXT FCST BY 291800Z
       
TAF CYGP 291339Z 2914/3002 09008KT P6SM SKC 
     BECMG 2923/3001 VRB03KT RMK NXT FCST BY 292000Z
       
TAF AMD CYND 291703Z 2917/3001 16012G22KT 6SM -RA BR SCT015 OVC020 
     TEMPO 2917/2922 3SM -RA BR BKN007 OVC015 
     FM292200 18007KT P6SM SCT015 BKN050 RMK NXT FCST BY 291800Z
       
TAF CYGQ 291339Z 2914/3002 18007KT P6SM SCT005 OVC080 
     TEMPO 2914/2916 4SM -SHRA BR BKN005 OVC080 
     FM291600 16008KT P6SM -SHRA BKN060 
     TEMPO 2916/3002 4SM -SHRA BR 
     PROB30 2918/3001 2SM TSRA BR BKN015 OVC030CB RMK NXT FCST BY 292000Z
       
TAF AMD CYHK 291504Z 2915/2924 VRB03KT P6SM OVC025 
     TEMPO 2915/2924 P6SM -RA OVC015 
     BECMG 2916/2918 01007KT RMK NXT FCST BY 291800Z
       
TAF CYYR 291130Z 2912/3012 24005KT P6SM FEW080 FEW250 
     BECMG 2914/2916 30008KT 
     BECMG 3001/3003 24005KT RMK NXT FCST BY 291800Z
       
TAF CYZE 291338Z 2914/2922 VRB03KT 1/4SM FG VV002 
     BECMG 2914/2916 P6SM NSW OVC025 
     FM291600 22010KT P6SM SCT030 
     TEMPO 2916/2920 4SM -SHRA BR BKN030 
     PROB30 2921/2922 VRB15G25KT 2SM +TSRA BR BKN010 OVC030CB RMK FCST BASED ON AUTO OBS. NXT FCST BY 292000Z
       
TAF CYQU 291238Z 2913/3001 08010KT P6SM SCT080 SCT200 
     BECMG 2915/2917 09012G22KT RMK NXT FCST BY 291900Z
       
TAF CYZX 291130Z 2912/3012 VRB03KT P6SM BKN015 
     TEMPO 2912/2915 BKN025 
     FM291500 07006KT P6SM BKN030 
     FM292300 VRB03KT P6SM SCT030 BKN250 
     FM300700 VRB03KT P6SM BKN020 BKN180 RMK NXT FCST BY 291800Z
       
TAF CYHZ 291438Z 2915/3012 09005KT P6SM SCT020 
     TEMPO 2915/2916 BKN020 
     FM291800 15011KT P6SM SCT040 
     PROB30 3003/3006 3/4SM BR 
     FM300600 09005KT P6SM FEW025 
     PROB30 3006/3011 3/4SM BR RMK NXT FCST BY 291800Z
       
TAF CYAW 291105Z 2912/2924 VRB03KT P6SM FEW020 SCT250 
     TEMPO 2912/2915 BKN020 
     BECMG 2913/2915 14008KT RMK NXT FCST BY 291800Z
       
TAF CYUX 291238Z 2913/3001 36007KT 1SM -FZDZ -SN BR OVC003 
     TEMPO 2913/2917 P6SM NSW OVC005 
     FM291700 34005KT P6SM SCT005 
     TEMPO 2917/2920 BKN005 RMK NXT FCST BY 291900Z
       
TAF CYHM 291139Z 2912/3012 24010KT 5SM BR BKN006 
     TEMPO 2912/2914 P6SM NSW BKN010 
     FM291400 24012G22KT P6SM SCT015 
     TEMPO 2914/2916 BKN015 
     FM291800 24015G25KT P6SM BKN050 
     TEMPO 2921/3002 P6SM -SHRA OVC050 
     PROB30 2921/3001 21/2SM +TSRA BR BKN025CB 
     FM300200 22010G20KT 6SM BR FEW008 BKN030 
     FM300400 21010KT 2SM -SHRA BR BKN008 OVC030 RMK NXT FCST BY 291800Z
       
TAF CYGV 291339Z 2914/3002 VRB03KT P6SM SKC 
     BECMG 2916/2918 24008KT 
     BECMG 2922/2924 VRB03KT RMK FCST BASED ON AUTO OBS. NXT FCST BY 292000Z
       
TAF CYHY 291138Z 2912/2924 17008KT P6SM SCT200 RMK NXT FCST BY 291800Z
       
TAF CYOJ 291238Z 2913/3001 15008KT P6SM SCT100 
     TEMPO 2913/2918 BKN100 
     FM291800 15010KT P6SM FEW100 SCT220 RMK FCST BASED ON AUTO OBS. NXT FCST BY 291900Z
       
TAF AMD CYHI 291622Z 2916/2924 25006KT 1SM BR OVC005 
     TEMPO 2916/2919 3SM BR BKN010 
     BECMG 2917/2919 30005KT 
     FM291900 30005KT P6SM SCT008 
     TEMPO 2919/2924 21/2SM BR BKN008 RMK NXT FCST BY 291900Z
       
TAF CYGR 291339Z 2914/3002 03012KT P6SM SCT008 
     TEMPO 2914/2917 BKN008 
     FM291800 03012KT P6SM SKC RMK NXT FCST BY 292000Z
       
TAF CYEV 291238Z 2913/3001 08012KT P6SM SCT200 RMK NXT FCST BY 291900Z
       
TAF CYFB 291138Z 2912/3012 VRB03KT P6SM BKN060 OVC080 
     TEMPO 2912/2916 P6SM -SN OVC040 
     FM291600 VRB03KT P6SM BKN060 
     TEMPO 2916/2921 SCT080 
     FM292200 VRB03KT P6SM FEW060 RMK NXT FCST BY 291800Z
       
TAF CYKA 291238Z 2913/3001 VRB03KT P6SM SKC 
     FM291800 11006KT P6SM FEW080 RMK NXT FCST BY 291900Z
       
TAF CYAS 291339Z 2914/2921 15005KT P6SM FEW080 SCT220 
     BECMG 2916/2918 10007KT RMK NXT FCST WILL BE ISSUED AT 301345Z
       
TAF CYYU 291339Z 2914/3002 20008KT P6SM FEW008 BKN040 
     TEMPO 2914/2916 5SM BR BKN008 OVC040 
     FM291600 23010KT P6SM BKN040 
     TEMPO 2916/3002 4SM -SHRA BR BKN020 
     PROB30 2918/2924 2SM +TSRA BR BKN015 OVC030CB RMK NXT FCST BY 292000Z
       
TAF CYLW 291238Z 2913/3001 VRB03KT P6SM SKC 
     FM291800 20006KT P6SM SCT080 RMK FCST BASED ON AUTO OBS. NXT FCST BY 291900Z
       
TAF CYQK 291339Z 2914/3002 33012G22KT 2SM -SHRA BR OVC003 
     TEMPO 2914/2916 P6SM NSW SCT003 OVC012 
     FM291600 33012G22KT 5SM -SHRA BR BKN008 OVC012 
     TEMPO 2916/2918 P6SM NSW SCT008 OVC015 
     FM291800 33012G22KT P6SM OVC030 
     TEMPO 2918/2924 5SM -SHRA BR OVC015 
     FM300000 31010KT P6SM OVC050 RMK NXT FCST BY 292000Z
       
TAF CYKF 291339Z 2914/3002 25012KT P6SM SCT012 
     TEMPO 2914/2915 BKN012 
     FM291500 26015G25KT P6SM SCT040 
     BECMG 2917/2919 26012G22KT 
     FM292100 22012G22KT P6SM BKN060 
     TEMPO 2921/3002 P6SM -SHRA 
     PROB40 2921/3001 VRB15G30KT 2SM TSRA BR BKN040 OVC060CB RMK FCST BASED ON AUTO OBS. NXT FCST BY 292000Z
       
TAF CYBB 291339Z 2914/2923 25007KT P6SM OVC030 
     FM291900 24007KT P6SM OVC030 
     TEMPO 2919/2923 5SM -RA BR OVC015 RMK NXT FCST BY 291900Z
       
TAF CYCO 291238Z 2913/3001 VRB03KT P6SM SCT010 
     PROB30 2913/2916 2SM BR BKN010 
     FM291600 VRB03KT P6SM SCT010 
     BECMG 2919/2921 06008KT RMK NXT FCST BY 291900Z
       
TAF CYVP 291142Z 2912/2924 VRB03KT P6SM FEW210 
     BECMG 2919/2921 06008KT RMK NXT FCST BY 291800Z
       
TAF CYGL 291142Z 2912/3012 09013KT P6SM FEW080 
     BECMG 2912/2914 BKN060 
     FM291500 13015G25KT P6SM BKN040 
     TEMPO 2915/2924 P6SM -SHRA 
     PROB30 2917/2920 VRB20G30KT 2SM +TSRA BR BKN040CB 
     FM300000 14012G22KT P6SM -SHRA OVC050 
     FM300600 13012G22KT P6SM -RA OVC020 
     FM300900 14012G22KT P6SM BKN020 RMK NXT FCST BY 291800Z
       
TAF CYVC 291238Z 2913/3001 33008KT P6SM SCT030 
     TEMPO 2913/2917 BKN030 
     FM291700 34012KT P6SM FEW050 RMK NXT FCST BY 291900Z
       
TAF CYQL 291138Z 2912/2924 14008KT P6SM SKC 
     BECMG 2913/2915 14010KT FEW100 RMK FCST BASED ON AUTO OBS. NXT FCST BY 291800Z
       
TAF CYLL 291138Z 2912/2924 VRB03KT P6SM SKC 
     BECMG 2914/2916 36008KT RMK FCST BASED ON AUTO OBS. NXT FCST BY 291800Z
       
TAF CYXU 291139Z 2912/3012 25005KT 6SM BR SCT004 BKN030 
     TEMPO 2912/2913 3SM BR OVC004 
     FM291300 26010KT P6SM SCT012 
     TEMPO 2913/2914 BKN012 
     FM291800 24012G22KT P6SM SCT060 
     PROB30 2920/2921 21/2SM +TSRA BR BKN025 OVC050CB 
     FM292100 27015G25KT P6SM BKN040 
     TEMPO 2921/3002 P6SM -SHRA OVC040 
     PROB40 2921/3001 11/2SM +TSRA BR BKN015 OVC040CB 
     FM300200 21010KT 6SM BR SCT007 BKN050 
     FM300400 19005KT 2SM -DZ BR BKN006 OVC025 
     FM301100 24010KT P6SM SCT008 BKN025 RMK NXT FCST BY 291800Z
       
TAF CYBX 291339Z 2914/3002 20005KT P6SM FEW015 
     TEMPO 2914/2915 BKN015 
     BECMG 2917/2919 25006KT 
     FM300000 VRB03KT P6SM SKC RMK NXT FCST BY 292000Z
       
TAF CYYL 291238Z 2913/3001 01010KT P6SM -RA SCT008 OVC015 
     TEMPO 2913/2915 5SM -RA BR OVC008 
     FM291500 36015G25KT 6SM -RA BR OVC015 
     TEMPO 2915/2919 P6SM NSW OVC025 
     FM291900 01015G25KT P6SM BKN030 
     BECMG 2919/2921 FEW030 RMK FCST BASED ON AUTO OBS. NXT FCST BY 291900Z
       
TAF CYZY 291439Z 2915/3003 16006KT P6SM SCT250 
     FM292000 16010KT P6SM SCT080 
     PROB30 2920/2923 VRB20G30KT 6SM TSRA BKN080CB RMK FCST BASED ON AUTO OBS. NXT FCST BY 291900Z
       
TAF CYSP 291339Z 2914/2921 VRB03KT 0SM FG VV000 
     TEMPO 2914/2918 1/2SM FG VV002 
     FM291800 21008KT 1SM BR OVC004 
     PROB30 2919/2921 2SM +TSRA BR BKN004 OVC010CB RMK NXT FCST WILL BE ISSUED AT 301345Z
       
TAF CZMT 291410Z 2914/2924 34008KT 1SM -SHRA BR OVC003 
     TEMPO 2914/2918 3SM BR SCT003 OVC006 
     FM291800 34005KT 2SM -SHRA BR OVC006 
     TEMPO 2918/2924 6SM BR SCT006 OVC010 RMK NXT FCST BY 291900Z
       
TAF CYMA 291138Z 2912/2924 VRB03KT P6SM SCT050 BKN140 
     FM291800 15010G20KT P6SM FEW080 SCT200 RMK NXT FCST BY 291800Z
       
TAF CYXH 291138Z 2912/2924 VRB03KT P6SM SKC 
     BECMG 2913/2915 12008KT 
     BECMG 2916/2918 09010KT RMK FCST BASED ON AUTO OBS. NXT FCST BY 291800Z
       
TAF AMD CYQM 291426Z 2914/3012 05008KT P6SM BKN009 OVC030 
     TEMPO 2914/2915 BKN012 OVC030 
     FM291500 04008KT P6SM OVC020 
     TEMPO 2915/2917 SCT020 OVC060 
     FM291700 05010KT P6SM SCT030 BKN080 
     FM300400 11006KT P6SM BKN050 RMK NXT FCST BY 291800Z
       
TAF CYYY 291339Z 2914/3002 10010KT P6SM BKN030 
     FM291800 10010KT P6SM SCT030 BKN080 RMK NXT FCST BY 292000Z
       
TAF CYUL 291438Z 2915/3012 13015G25KT P6SM BKN060 OVC120 
     TEMPO 2915/2919 P6SM -SHRA BKN030 OVC060 
     FM291900 15015G25KT P6SM -RA BKN030 OVC060 
     FM292100 15012G22KT 6SM -SHRA BR OVC020 
     TEMPO 2921/3001 5SM -SHRA BR 
     FM300100 15012KT P6SM OVC025 RMK NXT FCST BY 291800Z
       
TAF CYMX 291142Z 2912/3012 05007KT P6SM SCT120 BKN220 
     FM291600 15010G20KT P6SM SCT050 BKN120 
     TEMPO 2916/2919 P6SM -SHRA BKN050 OVC120 
     FM291900 15010G20KT P6SM -RA BKN015 OVC030 
     FM292200 15010KT 3SM -SHRA BR BKN008 OVC015 
     FM300300 12005KT 6SM BR SCT015 BKN040 RMK NXT FCST BY 291800Z
       
TAF CYHU 291142Z 2912/3012 05007KT P6SM BKN120 
     BECMG 2912/2914 17015G25KT 
     FM291600 17018G28KT P6SM BKN060 OVC120 
     TEMPO 2916/2919 P6SM -SHRA BKN030 OVC060 
     FM291900 17015G25KT P6SM -RA BKN030 OVC060 
     FM292100 16015KT 6SM -RA BR BKN020 OVC040 
     FM300500 15012KT P6SM BKN040 OVC100 
     FM301000 16012KT 6SM BR BKN020 OVC040 RMK FCST BASED ON AUTO OBS. NXT FCST BY 291800Z
       
TAF AMD CYMJ 291708Z 2917/2924 33015G25KT P6SM FEW040 RMK NXT FCST BY 291800Z
       
TAF AMD CYQA 291412Z 2914/3002 26008KT P6SM SCT015 OVC030 
     TEMPO 2914/2917 BKN008 OVC030 
     FM291700 24012G22KT P6SM SCT060 
     FM292200 22012G22KT P6SM OVC060 
     TEMPO 2922/3002 P6SM -SHRA 
     PROB30 2922/2924 VRB15G30KT 2SM TSRA BR BKN040 OVC060CB RMK FCST BASED ON AUTO OBS. NXT FCST BY 292000Z
       
TAF CYCD 291439Z 2915/3003 VRB03KT P6SM SKC 
     FM291800 23006KT P6SM SCT240 
     BECMG 2920/2922 10006KT RMK NXT FCST BY 291800Z
       
TAF CYNA 291339Z 2914/3002 22005KT P6SM SKC 
     FM291700 24012KT P6SM FEW070 
     BECMG 2923/3001 VRB03KT RMK FCST BASED ON AUTO OBS. NXT FCST BY 292000Z
       
TAF CYVQ 291138Z 2912/2924 09008KT P6SM SCT100 SCT200 
     BECMG 2917/2919 12015KT 
     FM292100 12015KT P6SM BKN060 RMK NXT FCST BY 291800Z
       
TAF CYQW 291138Z 2912/2924 33006KT P6SM SKC 
     BECMG 2915/2917 34012G22KT RMK FCST BASED ON AUTO OBS. NXT FCST BY 291800Z
       
TAF AMD CYYB 291620Z 2916/3002 22010KT P6SM OVC005 
     TEMPO 2916/2918 SCT005 OVC060 
     FM291800 22010G20KT P6SM SCT050 
     TEMPO 2918/3002 4SM -SHRA BR BKN050 
     PROB30 2919/3002 VRB20G30KT 2SM +TSRA BR BKN010 OVC030CB RMK NXT FCST BY 292000Z
       
TAF CYOC 291439Z 2915/3001 06008KT P6SM FEW050 BKN100 BKN220 
     BECMG 2918/2920 09010G20KT RMK NXT FCST BY 291800Z
       
TAF CYOW 291438Z 2915/3012 14012G22KT 6SM -RA BR SCT015 OVC025 
     TEMPO 2915/2922 3SM -RA BR BKN006 OVC015 
     FM292200 18007KT P6SM BKN015 OVC050 
     TEMPO 2922/3002 SCT015 BKN050 
     FM300200 18012KT P6SM BKN060 
     FM300600 16012KT P6SM OVC040 
     TEMPO 3006/3009 P6SM -SHRA OVC020 
     FM300900 16012KT P6SM -SHRA OVC020 
     TEMPO 3009/3012 4SM -SHRA BR BKN008 OVC015 RMK NXT FCST BY 291800Z
       
TAF CYXP 291238Z 2913/2922 26008KT P6SM FEW006 SCT040 OVC070 
     TEMPO 2913/2916 P6SM -SN OVC040 
     FM291600 27010KT P6SM SCT070 
     TEMPO 2916/2919 BKN070 
     FM291900 27010KT P6SM SCT005 OVC020 
     TEMPO 2919/2922 5SM -RA BR OVC005 RMK NXT FCST BY 291900Z
       
TAF CYPC 291439Z 2915/2923 VRB03KT 1/2SM FZFG BKN007 
     TEMPO 2915/2919 6SM BR SCT007 
     FM291900 15005KT P6SM FEW007 RMK NXT FCST BY 291900Z
       
TAF CYPE 291238Z 2913/3001 VRB03KT P6SM FEW250 
     BECMG 2914/2916 12010G20KT RMK NXT FCST BY 291900Z
       
TAF CYYF 291238Z 2913/3001 VRB03KT P6SM SKC 
     FM291800 18008KT P6SM SCT080 RMK NXT FCST BY 291900Z
       
TAF AMD CYWA 291418Z 2914/2924 13008KT 2SM -SHRA BR BKN003 OVC010 
     TEMPO 2914/2918 P6SM -SHRA BKN010 OVC020 
     PROB30 2914/2918 VRB15G25KT 2SM TSRA BR BKN003 OVC010CB 
     FM291800 24006KT P6SM SCT020 BKN030 
     TEMPO 2918/2920 5SM -SHRA BR BKN020 OVC030 
     BECMG 2920/2922 FEW020 SCT030 RMK FCST BASED ON AUTO OBS. NXT FCST BY 291800Z
       
TAF AMD CYPQ 291606Z 2916/3002 27012G22KT P6SM FEW020 BKN040 
     TEMPO 2916/2918 VRB15G30KT 2SM TSRA BR OVC008CB 
     FM291730 24012G22KT P6SM BKN060 
     PROB30 2919/2921 VRB15G25KT 2SM TSRA BR BKN040 OVC060CB RMK FCST BASED ON AUTO OBS. NXT FCST BY 292000Z
       
TAF CYPL 291238Z 2913/3001 VRB03KT P6SM SCT006 OVC050 
     TEMPO 2913/2915 4SM -SHRA BR BKN006 OVC012 
     PROB30 2913/2915 2SM TSRA BR OVC008CB 
     FM291500 VRB03KT 4SM -SHRA BR BKN006 OVC012 
     TEMPO 2915/2920 P6SM NSW SCT006 OVC012 
     PROB30 2915/2920 2SM TSRA BR OVC008CB 
     FM292000 32010KT P6SM BKN060 
     TEMPO 2920/2923 4SM -SHRA BR OVC006 
     FM292300 32010KT 4SM -SHRA BR OVC006 
     TEMPO 2923/3001 P6SM NSW OVC010 RMK NXT FCST BY 292000Z
       
TAF CYIO 291238Z 2913/3001 22007KT P6SM OVC015 
     FM291900 22005KT P6SM OVC015 
     TEMPO 2919/3001 SCT015 OVC030 RMK FCST BASED ON AUTO OBS. NXT FCST BY 291900Z
       
TAF CYZT 291238Z 2913/3001 VRB03KT P6SM OVC010 
     TEMPO 2913/2918 3SM -DZ BR OVC005 
     PROB30 2913/2917 1/2SM -DZ FG VV002 
     FM291800 02007KT P6SM SCT009 
     TEMPO 2918/2920 BKN009 
     FM292200 34010KT P6SM SCT030 BKN240 RMK NXT FCST BY 291900Z
       
TAF CYPA 291238Z 2913/3001 31008KT P6SM FEW060 
     BECMG 2914/2916 35015G25KT RMK NXT FCST BY 291900Z
       
TAF CYXS 291238Z 2913/3001 17006KT P6SM SKC 
     FM291800 20007KT P6SM SKC 
     FM292200 22007KT P6SM FEW090 
     PROB30 2922/3001 VRB25G40KT 6SM TSRA BKN090CB RMK FCST BASED ON AUTO OBS. NXT FCST BY 291900Z
       
TAF CYPR 291238Z 2913/3001 36006KT P6SM BKN012 
     TEMPO 2913/2918 OVC009 
     PROB30 2913/2918 2SM -DZ BR OVC005 
     FM291800 26006KT P6SM BKN012 
     TEMPO 2918/3001 SCT012 BKN200 RMK FCST BASED ON AUTO OBS. NXT FCST BY 291900Z
       
TAF CYPX 291138Z 2912/2924 06010KT P6SM SKC 
     BECMG 2920/2922 06015G25KT RMK FCST BASED ON AUTO OBS. NXT FCST BY 291800Z
       
TAF CYVM 291238Z 2913/3001 VRB03KT P6SM SCT060 BKN110 
     TEMPO 2913/2915 OVC060 
     FM291500 VRB03KT P6SM SCT030 OVC070 
     TEMPO 2915/2918 P6SM -SN OVC030 
     BECMG 2915/2917 36007KT 
     FM291800 36007KT P6SM SCT012 OVC030 
     TEMPO 2918/3001 5SM -SN OVC012 RMK NXT FCST BY 291900Z
       
TAF CYQB 291142Z 2912/3012 07010G20KT P6SM FEW050 BKN120 
     FM291400 09015G25KT P6SM FEW040 SCT080 
     FM292000 12010G20KT P6SM FEW040 BKN240 
     FM300000 13010KT P6SM BKN050 OVC120 
     TEMPO 3000/3004 P6SM -SHRA SCT025 OVC050 
     FM300400 08007KT P6SM -SHRA BKN015 OVC030 RMK NXT FCST BY 291800Z
       
TAF CYQZ 291138Z 2912/2924 VRB03KT P6SM SKC 
     FM292200 VRB03KT P6SM FEW100 
     PROB30 2922/2924 VRB25G35KT 6SM TSRA BKN100CB RMK FCST BASED ON AUTO OBS. NXT FCST BY 291900Z
       
TAF CYRT 291138Z 2912/2924 03008KT P6SM SCT140 RMK NXT FCST BY 291800Z
       
TAF CYQF 291138Z 2912/2924 VRB03KT P6SM SKC 
     BECMG 2914/2916 15010KT RMK NXT FCST BY 291800Z
       
TAF CYRL 291339Z 2914/3002 32012KT 5SM -SHRA BR OVC007 
     TEMPO 2914/2918 P6SM NSW OVC012 
     FM291800 32010G20KT 5SM -SHRA BR BKN015 OVC030 
     TEMPO 2918/2924 P6SM NSW SCT015 OVC030 
     FM300000 32008KT P6SM OVC050 RMK NXT FCST BY 292000Z
       
TAF CYQR 291138Z 2912/3012 32012KT P6SM BKN060 
     BECMG 2912/2914 34018G28KT SCT060 
     FM291700 33022G35KT P6SM FEW070 
     BECMG 2922/2924 34015G25KT 
     FM300300 36010KT P6SM SKC 
     BECMG 3009/3011 31006KT RMK NXT FCST BY 291800Z
       
TAF CYUT 291339Z 2914/2922 35007KT P6SM SCT004 BKN120 BKN220 
     TEMPO 2914/2915 BKN004 
     FM292100 35010KT P6SM SCT060 BKN120 BKN220 RMK NXT FCST BY 291900Z
       
TAF AMD CYRB 291256Z 2912/3012 32005KT P6SM FEW230 
     FM291600 30008KT P6SM SCT005 OVC012 
     TEMPO 2916/3006 2SM -SN BR OVC005 
     BECMG 3004/3006 03008KT 
     FM300600 03008KT P6SM SCT005 RMK NXT FCST BY 291800Z
       
TAF CYRJ 291339Z 2914/3002 10010KT P6SM FEW060 BKN120 
     FM292100 16008KT P6SM BKN060 
     TEMPO 2921/3002 P6SM -SHRA RMK NXT FCST BY 292000Z
       
TAF AMD CYUY 291450Z 2914/2924 14005KT 2SM -SHRA BR BKN006 OVC025 
     TEMPO 2914/2917 P6SM -SHRA SCT006 OVC025 
     FM291700 22008KT P6SM SCT010 OVC050 
     TEMPO 2917/2923 4SM -SHRA BR OVC010 
     PROB30 2917/2923 VRB15G25KT 2SM +TSRA BR BKN010 OVC030CB 
     FM292300 19010KT P6SM -SHRA OVC050 
     PROB40 2923/2924 VRB20G30KT 2SM +TSRA BR BKN010 OVC030CB RMK NXT FCST BY 291800Z
       
TAF AMD CYSJ 291611Z 2916/2924 08010KT P6SM SCT020 BKN070 
     TEMPO 2916/2918 BKN020 
     FM292000 10010KT P6SM BKN050 RMK NXT FCST BY 291800Z
       
TAF CYZG 291339Z 2914/2921 VRB03KT P6SM FEW150 SCT210 
     BECMG 2915/2917 20010KT RMK NXT FCST WILL BE ISSUED AT 301345Z
       
TAF CYZP 291238Z 2913/3001 26010KT P6SM FEW006 BKN015 
     TEMPO 2913/3001 BKN025 
     BECMG 2918/2920 11010KT RMK FCST BASED ON AUTO OBS. NXT FCST BY 291900Z
       
TAF CYZR 291339Z 2914/3002 25010KT P6SM FEW060 
     BECMG 2914/2916 23010G20KT 
     FM291800 22010G20KT P6SM BKN060 
     TEMPO 2918/3001 P6SM -SHRA 
     PROB30 2918/2923 VRB15G30KT 2SM TSRA BR BKN040 OVC060CB RMK FCST BASED ON AUTO OBS. NXT FCST BY 292000Z
       
TAF CYXE 291138Z 2912/3012 31010KT P6SM SKC 
     BECMG 2914/2916 34015G25KT 
     FM300200 01008KT P6SM SKC 
     BECMG 3005/3007 08005KT RMK NXT FCST BY 291800Z
       
TAF CYAM 291338Z 2914/3002 18005KT 6SM BR SCT006 OVC010 
     TEMPO 2914/2916 4SM -DZ BR OVC006 
     FM291600 20008KT 5SM -DZ BR OVC015 
     TEMPO 2916/2917 P6SM NSW BKN025 
     FM291700 21010KT P6SM SCT040 
     TEMPO 2917/3002 4SM -SHRA BR BKN040 
     PROB30 2919/3002 VRB15G25KT 2SM +TSRA BR BKN010 OVC030CB RMK NXT FCST BY 292000Z
       
TAF CYKL 291339Z 2914/3002 24008KT P6SM SKC 
     BECMG 2915/2917 15007KT RMK FCST BASED ON AUTO OBS. NXT FCST BY 292000Z
       
TAF CYZV 291139Z 2912/3012 07008KT P6SM FEW020 
     BECMG 2913/2915 11012KT 
     FM291500 14012KT P6SM SKC 
     BECMG 2922/2924 08010KT 
     FM300600 07010KT P6SM BKN060 RMK NXT FCST BY 291800Z
       
TAF CYSC 291038Z 2911/2923 10006KT P6SM SCT060 OVC110 
     TEMPO 2911/2913 5SM HZ BR 
     BECMG 2913/2915 13012G22KT 
     FM292100 16012G22KT P6SM -RA BKN030 OVC060 RMK FCST BASED ON AUTO OBS. NXT FCST BY 291800Z
       
TAF CYXL 291339Z 2914/3002 35008KT 4SM -SHRA BR BKN006 OVC015 
     TEMPO 2914/2918 P6SM NSW SCT006 OVC015 
     FM291800 32010KT 5SM -SHRA BR BKN015 OVC030 
     TEMPO 2918/3002 P6SM NSW SCT015 OVC030 RMK NXT FCST BY 292000Z
       
TAF CYZH 291238Z 2913/3001 12008KT P6SM SKC 
     BECMG 2915/2917 12012KT RMK FCST BASED ON AUTO OBS. NXT FCST BY 291900Z
       
TAF CYYD 291339Z 2914/3002 VRB03KT P6SM SCT250 
     FM292000 30010KT P6SM SCT090 BKN250 
     BECMG 3000/3002 VRB03KT RMK FCST BASED ON AUTO OBS. NXT FCST BY 291900Z
       
TAF AMD CYPG 291437Z 2914/2924 33015G25KT P6SM SCT012 BKN030 
     TEMPO 2914/2918 3SM -SHRA BR SCT008 OVC012 
     PROB30 2914/2916 OVC008 
     FM291800 33018G28KT P6SM FEW015 BKN030 
     TEMPO 2918/2924 5SM -SHRA BR BKN015 OVC030 RMK NXT FCST BY 291800Z
       
TAF AMD CYAY 291408Z 2914/3002 03006KT P6SM SCT009 
     TEMPO 2914/2916 BKN009 
     FM291600 04008KT P6SM SCT015 
     TEMPO 2916/2918 BKN015 
     FM300000 13006KT P6SM FEW030 RMK FCST BASED ON AUTO OBS. NXT FCST BY 292000Z
       
TAF AMD CYSN 291629Z 2916/3001 23012KT P6SM SCT015 
     TEMPO 2916/2919 2SM TSRA BR OVC015CB 
     FM291900 22012KT P6SM SCT015 
     TEMPO 2919/2921 5SM -SHRA BR BKN015 
     PROB30 2919/2921 2SM TSRA BR OVC015CB 
     FM292100 22012KT P6SM BKN080 RMK NXT FCST BY 292000Z
       
TAF CYYT 291142Z 2912/3012 05008KT P6SM FEW010 BKN040 OVC070 
     TEMPO 2912/2915 5SM -RA BR SCT004 BKN010 OVC040 
     FM291500 03010KT P6SM SCT020 BKN040 
     TEMPO 2915/2923 BKN020 
     FM292300 35008KT P6SM SCT004 OVC040 
     TEMPO 2923/3001 6SM BR BKN004 
     PROB30 2923/3001 2SM BR OVC003 
     FM300100 34008KT 1/2SM FG VV002 
     BECMG 3004/3006 31007KT 
     FM301000 29008KT 6SM BR OVC004 RMK NXT FCST BY 291800Z
       
TAF CYJT 291142Z 2912/3012 30007KT P6SM FEW005 SCT020 BKN080 
     TEMPO 2912/2914 BKN020 
     FM291400 32010KT P6SM SCT025 
     TEMPO 2914/2916 BKN025 
     BECMG 2921/2923 03007KT 
     FM300100 06005KT P6SM SKC RMK NXT FCST BY 291800Z
       
TAF CYSB 291338Z 2914/3002 25004KT P6SM BKN008 OVC050 
     BECMG 2914/2916 SCT050 
     FM291600 23010G20KT P6SM SCT050 
     TEMPO 2916/3002 4SM -SHRA BR BKN050 
     PROB30 2920/3002 VRB20G30KT 2SM +TSRA BR BKN010 OVC030CB RMK NXT FCST BY 292000Z
       
TAF CYYN 291138Z 2912/2924 25008KT P6SM SKC 
     BECMG 2913/2915 33010KT 
     FM291700 34015G25KT P6SM SKC RMK FCST BASED ON AUTO OBS. NXT FCST BY 291800Z
       
TAF CYQY 291139Z 2912/2924 VRB03KT P6SM SCT050 
     BECMG 2913/2915 01009KT RMK NXT FCST BY 291800Z
       
TAF CYYH 291138Z 2912/2924 VRB03KT P6SM FEW020 BKN050 
     TEMPO 2912/2921 P6SM -RA 
     FM292100 VRB03KT P6SM SCT040 
     TEMPO 2921/2924 BKN040 RMK NXT FCST BY 291800Z
       
TAF CYXT 291238Z 2913/3001 VRB03KT P6SM SCT220 
     FM292000 18010KT P6SM SCT070 RMK NXT FCST BY 291900Z
       
TAF AMD CYQD 291402Z 2914/3001 35012G22KT P6SM -RA OVC015 
     TEMPO 2914/2918 P6SM NSW OVC025 
     FM291800 33015G25KT P6SM BKN030 
     TEMPO 2918/3001 P6SM -RA RMK NXT FCST BY 291900Z
       
TAF CYTH 291238Z 2913/3001 35012KT 3SM -RA -DZ BR OVC005 
     TEMPO 2913/2917 P6SM NSW OVC010 
     FM291700 35015KT 6SM -RA BR OVC008 
     TEMPO 2917/3001 P6SM NSW OVC012 RMK NXT FCST BY 291900Z
       
TAF AMD CYQT 291613Z 2916/3002 VRB03KT P6SM -SHRA SCT006 OVC060 
     TEMPO 2916/2918 3SM -SHRA BR OVC006 
     FM291800 08005KT 3SM -SHRA BR BKN004 OVC010 
     TEMPO 2918/2921 P6SM -SHRA SCT004 OVC010 
     FM292100 VRB03KT P6SM OVC012 
     TEMPO 2921/3002 5SM -SHRA BR OVC006 
     PROB30 2921/3002 2SM TSRA BR OVC005CB RMK NXT FCST BY 292000Z
       
TAF CYTS 291339Z 2914/3002 VRB03KT P6SM FEW009 SCT030 
     TEMPO 2914/2917 5SM BR BKN009 OVC030 
     FM291700 21008KT P6SM BKN040 
     TEMPO 2917/3002 4SM -SHRA BR 
     PROB30 2918/3001 2SM +TSRA BR BKN020CB RMK NXT FCST BY 292000Z
       
TAF CYAZ 291439Z 2915/3001 VRB03KT 2SM -DZ BR SCT004 OVC006 
     TEMPO 2915/2918 5SM BR SCT006 OVC010 
     FM291800 23008KT 3SM -DZ BR OVC006 
     TEMPO 2918/2921 P6SM NSW OVC010 
     FM292100 28012KT P6SM SCT015 BKN025 
     TEMPO 2921/3001 5SM -DZ BR BKN015 RMK NXT FCST BY 291800Z
       
TAF CYKZ 291139Z 2912/2924 21007KT P6SM SCT008 BKN025 
     TEMPO 2912/2914 5SM -SHRA BR BKN008 OVC020 
     FM291400 26010KT P6SM SCT020 BKN050 
     TEMPO 2914/2915 BKN020 BKN050 
     FM291700 26012G22KT P6SM FEW050 
     FM292300 26010KT P6SM SCT050 BKN100 
     TEMPO 2923/2924 P6SM -SHRA BKN050 OVC100 
     PROB30 2923/2924 21/2SM TSRA BR BKN025 OVC050CB RMK NXT FCST BY 291800Z
       
TAF AMD CYTZ 291642Z 2916/3014 18012KT P6SM SCT060 
     TEMPO 2916/2918 2SM TSRA BR BKN060CB 
     FM291730 24010G20KT P6SM FEW040 
     FM292300 26010KT P6SM SCT015 BKN070 
     TEMPO 3001/3004 BKN020 
     FM300400 23005KT 6SM BR SCT100 
     FM300700 21008KT 3SM BR BKN006 
     BECMG 3011/3013 22010G20KT RMK FCST BASED ON AUTO OBS. NXT FCST BY 292000Z
       
TAF AMD CYYZ 291612Z 2916/3018 25012G22KT P6SM SCT020 BKN030 
     TEMPO 2916/2918 6SM -SHRA BR BKN020 
     PROB30 2916/2917 2SM TSRA BR BKN025CB 
     FM291800 27015G25KT P6SM FEW050 
     FM292200 25012G22KT P6SM SCT060 
     TEMPO 2922/3001 P6SM -SHRA BKN060 
     PROB30 2922/3001 21/2SM TSRA BR BKN025 OVC050CB 
     FM300100 23012KT P6SM BKN080 
     FM300500 17007KT 6SM BR FEW006 SCT080 
     FM300900 22006KT 3SM -DZ BR BKN005 OVC010 
     FM301400 23010KT P6SM BKN025 
     TEMPO 3014/3018 OVC020 
     BECMG 3015/3017 24015G25KT RMK NXT FCST BY 291800Z
       
TAF AMD CYTR 291608Z 2916/3012 20008KT P6SM OVC005 
     BECMG 2916/2918 SCT030 
     FM291800 22010KT P6SM SCT030 
     TEMPO 2918/2923 3SM -SHRA BR BKN030 
     PROB30 2918/2921 VRB15G25KT 2SM TSRA BR BKN020CB 
     FM300600 22008KT 6SM -SHRA BR OVC030 
     PROB30 3006/3009 VRB15G25KT 2SM TSRA BR BKN008 OVC020CB 
     FM300900 22008KT 6SM BR OVC008 RMK NXT FCST BY 291800Z
       
TAF CYRQ 291339Z 2914/3002 07012KT P6SM BKN220 
     FM291600 07012KT P6SM BKN120 
     FM291800 15010G20KT P6SM SCT050 BKN120 
     TEMPO 2918/2921 P6SM -SHRA BKN050 OVC120 
     FM292100 20010G20KT P6SM -RA OVC030 
     TEMPO 2921/3002 5SM -RA BR OVC020 
     BECMG 2922/2924 16010G20KT RMK FCST BASED ON AUTO OBS. NXT FCST BY 292000Z
       
TAF CYUB 291439Z 2915/3003 09012KT P6SM FEW090 RMK NXT FCST BY 291900Z
       
TAF AMD CYVO 291420Z 2914/2924 12010G20KT 2SM -SHRA BR OVC020 
     TEMPO 2914/2916 6SM -SHRA BR OVC025 
     FM291600 14015G25KT 6SM -SHRA BR OVC025 
     TEMPO 2916/2918 2SM SHRA BR FEW008 OVC012 
     FM291800 13018G28KT P6SM -SHRA BKN020 
     PROB30 2918/2924 VRB15G25KT 2SM +TSRA BR BKN010 OVC030CB RMK NXT FCST BY 291800Z
       
TAF CYVR 291439Z 2915/3018 VRB03KT P6SM FEW240 
     BECMG 2916/2918 25008KT 
     BECMG 3003/3005 10009KT 
     FM300700 10009KT P6SM BKN100 
     FM301300 11010KT P6SM -SHRA BKN040 OVC080 RMK NXT FCST BY 291800Z
       
TAF CYYJ 291138Z 2912/3012 VRB03KT P6SM SKC 
     BECMG 2916/2918 12007KT 
     BECMG 3002/3004 VRB03KT 
     FM300700 VRB03KT P6SM BKN100 RMK NXT FCST BY 291800Z
       
TAF CYWK 291339Z 2914/3002 17010KT P6SM SKC 
     BECMG 2914/2916 13008KT RMK NXT FCST BY 292000Z
       
TAF CYQH 291138Z 2912/2924 13005KT P6SM BKN220 
     FM292200 26010KT P6SM BKN080 RMK NXT FCST BY 291800Z
       
TAF CYXZ 291242Z 2913/2924 VRB03KT 3/8SM FG VV002 
     TEMPO 2913/2915 2SM BR BKN006 
     FM291500 20008KT 6SM BR SCT006 
     TEMPO 2915/2917 2SM BR BKN006 
     FM291700 22010KT P6SM SCT020 
     TEMPO 2917/2924 BKN020 
     PROB30 2918/2924 VRB15G25KT 2SM +TSRA BR BKN010 OVC030CB RMK NXT FCST BY 292000Z
       
TAF CYZU 291410Z 2914/2923 09010KT P6SM FEW100 
     BECMG 2918/2920 13012KT RMK NXT FCST BY 291900Z
       
TAF CYXY 291138Z 2912/3012 20005KT P6SM BKN160 
     FM291600 16015G25KT P6SM FEW050 SCT120 
     FM300500 16008KT P6SM FEW240 RMK NXT FCST BY 291800Z
       
TAF CYVV 291338Z 2914/2923 24008KT 3/4SM BR OVC003 
     TEMPO 2914/2917 P6SM NSW SCT003 
     FM291700 23012KT P6SM SKC 
     FM292100 22012G22KT P6SM SCT080 
     PROB30 2922/2923 VRB20G30KT 2SM TSRA BR BKN060 OVC080CB RMK NXT FCST BY 292000Z
       
TAF CYWL 291238Z 2913/3001 VRB03KT P6SM SKC RMK NXT FCST BY 291900Z
       
TAF CYQG 291139Z 2912/3012 24005KT P6SM SKC 
     BECMG 2913/2915 25012KT 
     FM291800 23015G25KT P6SM SCT060 
     TEMPO 2919/3001 P6SM -SHRA BKN060 
     PROB30 2920/2924 VRB15G30KT 2SM +TSRA BR BKN020 OVC050CB 
     FM300200 25010KT P6SM FEW040 RMK NXT FCST BY 291800Z
       
TAF CYWG 291138Z 2912/3012 35006KT P6SM SCT012 OVC030 
     TEMPO 2912/2916 6SM -RA BR OVC012 
     BECMG 2912/2914 33015KT 
     FM291600 34020G30KT P6SM OVC030 
     TEMPO 2916/2924 P6SM -RA OVC020 
     FM300000 34012G22KT P6SM OVC025 
     TEMPO 3000/3012 6SM -RA BR OVC020 RMK NXT FCST BY 291800Z
       
TAF AMD CYQI 291354Z 2913/2924 12008KT P6SM FEW020 
     TEMPO 2913/2916 BKN020 
     FM291800 10012KT P6SM SKC RMK NXT FCST BY 291800Z
       
TAF CYZF 291138Z 2912/3012 20008KT P6SM BKN100 
     FM291800 14005KT P6SM SCT100 
     BECMG 3004/3006 11010KT 
     FM300900 10012KT P6SM BKN100 RMK NXT FCST BY 291800Z
       
TAF CYQV 291138Z 2912/2924 30012KT P6SM SCT030 
     TEMPO 2912/2916 BKN030 
     BECMG 2913/2915 33015G25KT 
     FM291600 33020G30KT P6SM BKN040 RMK FCST BASED ON AUTO OBS. NXT FCST BY 291800Z